Observation data for Adrian on 06/16/2019      Previous  Date  Next       Current Mesonet Observations  Soil Data  Daily Summary Page  Observations in Plain Language
KAD1 160500Z 29007KT 16/12 A2998 RMK A01 T01560121  RH  080%=      5-min Rain = 0
KAD1 160501Z 29006KT 16/12 A2998 RMK A01 T01560121  RH  080%=      5-min Rain = 0
KAD1 160502Z 29007KT 16/12 A2998 RMK A01 T01560121  RH  080%=      5-min Rain = 0
KAD1 160503Z 29007KT 16/12 A2998 RMK A01 T01560121  RH  080%=      5-min Rain = 0
KAD1 160504Z 29007KT 16/12 A2998 RMK A01 T01560120  RH  079%=      5-min Rain = 0
KAD1 160505Z 30009KT 16/12 A2998 RMK A01 T01560120  RH  079%=      5-min Rain = 0
KAD1 160506Z 29007KT 16/12 A2998 RMK A01 T01570119  RH  078%=      5-min Rain = 0
KAD1 160507Z 29006KT 16/12 A2998 RMK A01 T01580120  RH  078%=      5-min Rain = 0
KAD1 160508Z 29006KT 16/12 A2998 RMK A01 T01580120  RH  078%=      5-min Rain = 0
KAD1 160509Z 29006KT 16/12 A2998 RMK A01 T01580120  RH  078%=      5-min Rain = 0
KAD1 160510Z 29005KT 16/12 A2998 RMK A01 T01580121  RH  079%=      5-min Rain = 0
KAD1 160511Z 29005KT 16/12 A2998 RMK A01 T01570122  RH  080%=      5-min Rain = 0
KAD1 160512Z 29006KT 16/12 A2998 RMK A01 T01570122  RH  080%=      5-min Rain = 0
KAD1 160513Z 30008KT 16/12 A2998 RMK A01 T01570120  RH  079%=      5-min Rain = 0
KAD1 160514Z 29008KT 16/12 A2998 RMK A01 T01570119  RH  078%=      5-min Rain = 0
KAD1 160515Z 30007KT 16/12 A2997 RMK A01 T01580118  RH  077%=      5-min Rain = 0
KAD1 160516Z 30007KT 16/12 A2997 RMK A01 T01590118  RH  077%=      5-min Rain = 0
KAD1 160517Z 30008KT 16/12 A2997 RMK A01 T01590117  RH  076%=      5-min Rain = 0
KAD1 160518Z 30009KT 16/12 A2997 RMK A01 T01600116  RH  075%=      5-min Rain = 0
KAD1 160519Z 31008KT 16/12 A2997 RMK A01 T01610116  RH  075%=      5-min Rain = 0
KAD1 160520Z 30008KT 16/12 A2997 RMK A01 T01620116  RH  074%=      5-min Rain = 0
KAD1 160521Z 31006KT 16/12 A2997 RMK A01 T01620116  RH  074%=      5-min Rain = 0
KAD1 160522Z 31010KT 16/12 A2997 RMK A01 T01620116  RH  074%=      5-min Rain = 0
KAD1 160523Z 31008KT 16/12 A2997 RMK A01 T01620116  RH  075%=      5-min Rain = 0
KAD1 160524Z 31008KT 16/12 A2997 RMK A01 T01620118  RH  075%=      5-min Rain = 0
KAD1 160525Z 32007KT 16/12 A2997 RMK A01 T01610118  RH  075%=      5-min Rain = 0
KAD1 160526Z 31007KT 16/12 A2997 RMK A01 T01610118  RH  076%=      5-min Rain = 0
KAD1 160527Z 32008KT 16/12 A2997 RMK A01 T01600118  RH  076%=      5-min Rain = 0
KAD1 160528Z 32006KT 16/12 A2997 RMK A01 T01600118  RH  076%=      5-min Rain = 0
KAD1 160529Z 31008KT 16/12 A2997 RMK A01 T01600118  RH  076%=      5-min Rain = 0
KAD1 160530Z 32007KT 16/12 A2997 RMK A01 T01600118  RH  076%=      5-min Rain = 0
KAD1 160531Z 32007KT 16/12 A2997 RMK A01 T01600118  RH  076%=      5-min Rain = 0
KAD1 160532Z 32006KT 16/12 A2997 RMK A01 T01600118  RH  076%=      5-min Rain = 0
KAD1 160533Z 31007KT 16/12 A2997 RMK A01 T01590118  RH  077%=      5-min Rain = 0
KAD1 160534Z 32006KT 16/12 A2997 RMK A01 T01590118  RH  077%=      5-min Rain = 0
KAD1 160535Z 31007KT 16/12 A2997 RMK A01 T01590118  RH  077%=      5-min Rain = 0
KAD1 160536Z 31006KT 16/12 A2997 RMK A01 T01580118  RH  077%=      5-min Rain = 0
KAD1 160537Z 31007KT 16/12 A2997 RMK A01 T01590118  RH  077%=      5-min Rain = 0
KAD1 160538Z 31006KT 16/12 A2996 RMK A01 T01590118  RH  077%=      5-min Rain = 0
KAD1 160539Z 32005KT 16/12 A2996 RMK A01 T01580117  RH  076%=      5-min Rain = 0
KAD1 160540Z 31005KT 16/12 A2996 RMK A01 T01590118  RH  077%=      5-min Rain = 0
KAD1 160541Z 31006KT 16/12 A2996 RMK A01 T01580118  RH  077%=      5-min Rain = 0
KAD1 160542Z 32006KT 16/12 A2996 RMK A01 T01580118  RH  077%=      5-min Rain = 0
KAD1 160543Z 32005KT 16/12 A2996 RMK A01 T01590118  RH  077%=      5-min Rain = 0
KAD1 160544Z 32006KT 16/12 A2996 RMK A01 T01580118  RH  077%=      5-min Rain = 0
KAD1 160545Z 32005KT 16/12 A2996 RMK A01 T01580119  RH  077%=      5-min Rain = 0
KAD1 160546Z 31005KT 16/12 A2996 RMK A01 T01580118  RH  077%=      5-min Rain = 0
KAD1 160547Z 31005KT 16/12 A2996 RMK A01 T01580119  RH  077%=      5-min Rain = 0
KAD1 160548Z 31005KT 16/12 A2996 RMK A01 T01580119  RH  077%=      5-min Rain = 0
KAD1 160549Z 31006KT 16/12 A2997 RMK A01 T01580119  RH  078%=      5-min Rain = 0
KAD1 160550Z 30005KT 16/12 A2997 RMK A01 T01580119  RH  078%=      5-min Rain = 0
KAD1 160551Z 29005KT 16/12 A2997 RMK A01 T01570119  RH  078%=      5-min Rain = 0
KAD1 160552Z 29005KT 16/12 A2997 RMK A01 T01570119  RH  078%=      5-min Rain = 0
KAD1 160553Z 29004KT 16/12 A2997 RMK A01 T01570119  RH  078%=      5-min Rain = 0
KAD1 160554Z 29004KT 16/12 A2997 RMK A01 T01570119  RH  078%=      5-min Rain = 0
KAD1 160555Z 29004KT 16/12 A2997 RMK A01 T01570119  RH  078%=      5-min Rain = 0
KAD1 160556Z 29004KT 16/12 A2997 RMK A01 T01570119  RH  078%=      5-min Rain = 0
KAD1 160557Z 29004KT 16/12 A2997 RMK A01 T01570119  RH  078%=      5-min Rain = 0
KAD1 160558Z 29004KT 16/12 A2997 RMK A01 T01570119  RH  078%=      5-min Rain = 0
KAD1 160559Z 29004KT 16/12 A2997 RMK A01 T01560119  RH  078%=      5-min Rain = 0
KAD1 160600Z 29004KT 16/12 A2997 RMK A01 T01560119  RH  078%=      5-min Rain = 0
KAD1 160601Z 29005KT 16/12 A2997 RMK A01 T01560118  RH  078%=      5-min Rain = 0
KAD1 160602Z 28006KT 16/12 A2997 RMK A01 T01560119  RH  078%=      5-min Rain = 0
KAD1 160603Z 28006KT 16/12 A2997 RMK A01 T01560119  RH  078%=      5-min Rain = 0
KAD1 160604Z 27006KT 16/12 A2997 RMK A01 T01560119  RH  079%=      5-min Rain = 0
KAD1 160605Z 27008KT 16/12 A2997 RMK A01 T01560120  RH  079%=      5-min Rain = 0
KAD1 160606Z 26008KT 16/12 A2998 RMK A01 T01550122  RH  080%=      5-min Rain = 0
KAD1 160607Z 26008KT 15/12 A2997 RMK A01 T01540122  RH  081%=      5-min Rain = 0
KAD1 160608Z 26007KT 15/12 A2997 RMK A01 T01530123  RH  082%=      5-min Rain = 0
KAD1 160609Z 27006KT 15/12 A2997 RMK A01 T01530124  RH  083%=      5-min Rain = 0
KAD1 160610Z 27005KT 15/13 A2997 RMK A01 T01520125  RH  084%=      5-min Rain = 0
KAD1 160611Z 27004KT 15/13 A2997 RMK A01 T01510126  RH  085%=      5-min Rain = 0
KAD1 160612Z 28004KT 15/13 A2997 RMK A01 T01510126  RH  085%=      5-min Rain = 0
KAD1 160613Z 27004KT 15/13 A2998 RMK A01 T01510126  RH  085%=      5-min Rain = 0
KAD1 160614Z 27006KT 15/13 A2998 RMK A01 T01510126  RH  085%=      5-min Rain = 0
KAD1 160615Z 27007KT 15/13 A2998 RMK A01 T01510126  RH  085%=      5-min Rain = 0
KAD1 160616Z 27007KT 15/13 A2998 RMK A01 T01510126  RH  085%=      5-min Rain = 0
KAD1 160617Z 27006KT 15/13 A2999 RMK A01 T01500126  RH  085%=      5-min Rain = 0
KAD1 160618Z 28008KT 15/13 A2999 RMK A01 T01510126  RH  085%=      5-min Rain = 0
KAD1 160619Z 28008KT 15/13 A2999 RMK A01 T01510126  RH  085%=      5-min Rain = 0
KAD1 160620Z 28008KT 15/13 A2999 RMK A01 T01520126  RH  085%=      5-min Rain = 0
KAD1 160621Z 28008KT 15/13 A2999 RMK A01 T01520125  RH  084%=      5-min Rain = 0
KAD1 160622Z 28009KT 15/12 A2999 RMK A01 T01520124  RH  083%=      5-min Rain = 0
KAD1 160623Z 28008KT 15/12 A2999 RMK A01 T01530124  RH  083%=      5-min Rain = 0
KAD1 160624Z 28009KT 15/12 A2999 RMK A01 T01530124  RH  083%=      5-min Rain = 0
KAD1 160625Z 28009KT 15/12 A2999 RMK A01 T01530124  RH  083%=      5-min Rain = 0
KAD1 160626Z 29010KT 15/13 A2999 RMK A01 T01530125  RH  083%=      5-min Rain = 0
KAD1 160627Z 29010KT 15/13 A30 RMK A01 T01520125  RH  083%=      5-min Rain = 0
KAD1 160628Z 29008KT 15/13 A2999 RMK A01 T01530125  RH  084%=      5-min Rain = 0
KAD1 160629Z 29010KT 15/13 A30 RMK A01 T01520125  RH  084%=      5-min Rain = 0
KAD1 160630Z 30011KT 15/12 A30 RMK A01 T01520124  RH  083%=      5-min Rain = 0
KAD1 160631Z 30012KT 15/12 A30 RMK A01 T01530121  RH  081%=      5-min Rain = 0
KAD1 160632Z 30011KT 15/12 A30 RMK A01 T01540120  RH  080%=      5-min Rain = 0
KAD1 160633Z 30010KT 16/12 A30 RMK A01 T01560120  RH  079%=      5-min Rain = 0
KAD1 160634Z 30010KT 16/12 A30 RMK A01 T01560120  RH  079%=      5-min Rain = 0
KAD1 160635Z 30011KT 16/12 A30 RMK A01 T01560120  RH  079%=      5-min Rain = 0
KAD1 160636Z 29011KT 16/12 A30 RMK A01 T01560120  RH  079%=      5-min Rain = 0
KAD1 160637Z 29011KT 16/12 A30 RMK A01 T01560120  RH  079%=      5-min Rain = 0
KAD1 160638Z 29010KT 16/12 A30 RMK A01 T01560119  RH  079%=      5-min Rain = 0
KAD1 160639Z 30009KT 16/12 A30 RMK A01 T01560120  RH  079%=      5-min Rain = 0
KAD1 160640Z 30009KT 16/12 A2999 RMK A01 T01560119  RH  079%=      5-min Rain = 0
KAD1 160641Z 30009KT 16/12 A2999 RMK A01 T01560119  RH  079%=      5-min Rain = 0
KAD1 160642Z 30010KT 16/12 A2999 RMK A01 T01560119  RH  078%=      5-min Rain = 0
KAD1 160643Z 30010KT 16/12 A2999 RMK A01 T01570119  RH  078%=      5-min Rain = 0
KAD1 160644Z 30010KT 16/12 A2999 RMK A01 T01570119  RH  078%=      5-min Rain = 0
KAD1 160645Z 30009KT 16/12 A2999 RMK A01 T01570119  RH  078%=      5-min Rain = 0
KAD1 160646Z 29009KT 16/12 A2999 RMK A01 T01570120  RH  078%=      5-min Rain = 0
KAD1 160647Z 28010KT 16/12 A2999 RMK A01 T01570121  RH  079%=      5-min Rain = 0
KAD1 160648Z 28010KT 16/12 A2999 RMK A01 T01560121  RH  080%=      5-min Rain = 0
KAD1 160649Z 29009KT 16/12 A2999 RMK A01 T01560122  RH  080%=      5-min Rain = 0
KAD1 160650Z 30009KT 16/12 A2999 RMK A01 T01550122  RH  081%=      5-min Rain = 0
KAD1 160651Z 31007KT 16/12 A2999 RMK A01 T01550123  RH  081%=      5-min Rain = 0
KAD1 160652Z 33008KT 16/12 A2998 RMK A01 T01550121  RH  080%=      5-min Rain = 0
KAD1 160653Z 32007KT 16/12 A2998 RMK A01 T01550119  RH  079%=      5-min Rain = 0
KAD1 160654Z 32006KT 16/12 A2998 RMK A01 T01560119  RH  078%=      5-min Rain = 0
KAD1 160655Z 31006KT 16/12 A2998 RMK A01 T01560119  RH  078%=      5-min Rain = 0
KAD1 160656Z 29006KT 16/12 A2998 RMK A01 T01560119  RH  078%=      5-min Rain = 0
KAD1 160657Z 28007KT 16/12 A2998 RMK A01 T01560118  RH  078%=      5-min Rain = 0
KAD1 160658Z 28007KT 16/12 A2998 RMK A01 T01560119  RH  078%=      5-min Rain = 0
KAD1 160659Z 28007KT 16/12 A2998 RMK A01 T01560119  RH  079%=      5-min Rain = 0
KAD1 160700Z 28007KT 16/12 A2998 RMK A01 T01560119  RH  078%=      5-min Rain = 0
KAD1 160701Z 29007KT 16/12 A2998 RMK A01 T01560119  RH  078%=      5-min Rain = 0
KAD1 160702Z 30007KT 16/12 A2998 RMK A01 T01560119  RH  078%=      5-min Rain = 0
KAD1 160703Z 31006KT 16/12 A2998 RMK A01 T01560119  RH  078%=      5-min Rain = 0
KAD1 160704Z 31005KT 16/12 A2998 RMK A01 T01560118  RH  078%=      5-min Rain = 0
KAD1 160705Z 32006KT 16/12 A2998 RMK A01 T01570117  RH  077%=      5-min Rain = 0
KAD1 160706Z 31007KT 16/12 A2998 RMK A01 T01570117  RH  077%=      5-min Rain = 0
KAD1 160707Z 32008KT 16/12 A2998 RMK A01 T01580117  RH  076%=      5-min Rain = 0
KAD1 160708Z 32007KT 16/12 A2998 RMK A01 T01590117  RH  076%=      5-min Rain = 0
KAD1 160709Z 32006KT 16/12 A2998 RMK A01 T01590116  RH  076%=      5-min Rain = 0
KAD1 160710Z 33005KT 16/12 A2998 RMK A01 T01590117  RH  076%=      5-min Rain = 0
KAD1 160711Z 33005KT 16/12 A2998 RMK A01 T01590118  RH  077%=      5-min Rain = 0
KAD1 160712Z 33007KT 16/12 A2998 RMK A01 T01580119  RH  077%=      5-min Rain = 0
KAD1 160713Z 33006KT 16/12 A2998 RMK A01 T01580119  RH  078%=      5-min Rain = 0
KAD1 160714Z 34006KT 16/12 A2998 RMK A01 T01570119  RH  078%=      5-min Rain = 0
KAD1 160715Z 34006KT 16/12 A2998 RMK A01 T01570120  RH  078%=      5-min Rain = 0
KAD1 160716Z 34006KT 16/12 A2998 RMK A01 T01570120  RH  079%=      5-min Rain = 0
KAD1 160717Z 35006KT 16/12 A2998 RMK A01 T01560121  RH  079%=      5-min Rain = 0
KAD1 160718Z 35006KT 16/12 A2997 RMK A01 T01560121  RH  079%=      5-min Rain = 0
KAD1 160719Z 35005KT 16/12 A2997 RMK A01 T01560121  RH  080%=      5-min Rain = 0
KAD1 160720Z 33005KT 16/12 A2998 RMK A01 T01560121  RH  079%=      5-min Rain = 0
KAD1 160721Z 32005KT 16/12 A2998 RMK A01 T01560120  RH  079%=      5-min Rain = 0
KAD1 160722Z 30006KT 16/12 A2998 RMK A01 T01560120  RH  079%=      5-min Rain = 0
KAD1 160723Z 29008KT 16/12 A2999 RMK A01 T01560121  RH  080%=      5-min Rain = 0
KAD1 160724Z 29007KT 16/12 A2999 RMK A01 T01560122  RH  080%=      5-min Rain = 0
KAD1 160725Z 29005KT 16/12 A2999 RMK A01 T01560123  RH  081%=      5-min Rain = 0
KAD1 160726Z 30004KT 16/12 A2999 RMK A01 T01550123  RH  081%=      5-min Rain = 0
KAD1 160727Z 30004KT 16/12 A2999 RMK A01 T01550123  RH  081%=      5-min Rain = 0
KAD1 160728Z 29004KT 16/12 A2999 RMK A01 T01550123  RH  082%=      5-min Rain = 0
KAD1 160729Z 29004KT 15/12 A2999 RMK A01 T01540123  RH  082%=      5-min Rain = 0
KAD1 160730Z 29005KT 15/12 A2999 RMK A01 T01540124  RH  082%=      5-min Rain = 0
KAD1 160731Z 30006KT 15/12 A2999 RMK A01 T01540123  RH  082%=      5-min Rain = 0
KAD1 160732Z 30005KT 15/12 A2999 RMK A01 T01540123  RH  081%=      5-min Rain = 0
KAD1 160733Z 30004KT 15/12 A2999 RMK A01 T01540123  RH  081%=      5-min Rain = 0
KAD1 160734Z 30006KT 16/12 A30 RMK A01 T01550122  RH  081%=      5-min Rain = 0
KAD1 160735Z 30009KT 15/12 A30 RMK A01 T01540122  RH  081%=      5-min Rain = 0
KAD1 160736Z 29009KT 16/12 A30 RMK A01 T01550122  RH  081%=      5-min Rain = 0
KAD1 160737Z 28010KT 16/12 A30 RMK A01 T01550122  RH  081%=      5-min Rain = 0
KAD1 160738Z 28010KT 16/12 A30 RMK A01 T01550121  RH  081%=      5-min Rain = 0
KAD1 160739Z 29011KT 16/12 A3001 RMK A01 T01550121  RH  080%=      5-min Rain = 0
KAD1 160740Z 29009KT 16/12 A3001 RMK A01 T01550121  RH  080%=      5-min Rain = 0
KAD1 160741Z 31008KT 16/12 A30 RMK A01 T01550121  RH  080%=      5-min Rain = 0
KAD1 160742Z 32006KT 16/12 A30 RMK A01 T01550121  RH  080%=      5-min Rain = 0
KAD1 160743Z 32007KT 16/12 A30 RMK A01 T01550121  RH  080%=      5-min Rain = 0
KAD1 160744Z 32007KT 16/12 A30 RMK A01 T01550122  RH  081%=      5-min Rain = 0
KAD1 160745Z 33007KT 16/12 A30 RMK A01 T01550123  RH  081%=      5-min Rain = 0
KAD1 160746Z 35006KT 15/12 A2999 RMK A01 T01540123  RH  082%=      5-min Rain = 0
KAD1 160747Z 34007KT 15/12 A30 RMK A01 T01540124  RH  082%=      5-min Rain = 0
KAD1 160748Z 34007KT 15/12 A30 RMK A01 T01540124  RH  083%=      5-min Rain = 0
KAD1 160749Z 35005KT 15/12 A2999 RMK A01 T01540123  RH  082%=      5-min Rain = 0
KAD1 160750Z 33005KT 15/12 A2999 RMK A01 T01540122  RH  081%=      5-min Rain = 0
KAD1 160751Z 29005KT 15/12 A30 RMK A01 T01540121  RH  081%=      5-min Rain = 0
KAD1 160752Z 27005KT 15/12 A30 RMK A01 T01540121  RH  080%=      5-min Rain = 0
KAD1 160753Z 25004KT 16/12 A30 RMK A01 T01550123  RH  081%=      5-min Rain = 0
KAD1 160754Z 25006KT 15/12 A30 RMK A01 T01540124  RH  082%=      5-min Rain = 0
KAD1 160755Z 25007KT 15/12 A3001 RMK A01 T01530124  RH  083%=      5-min Rain = 0
KAD1 160756Z 26009KT 15/12 A3001 RMK A01 T01530124  RH  083%=      5-min Rain = 0
KAD1 160757Z 26009KT 15/12 A3001 RMK A01 T01520124  RH  083%=      5-min Rain = 0
KAD1 160758Z 26006KT 15/12 A3001 RMK A01 T01520124  RH  083%=      5-min Rain = 0
KAD1 160759Z 29004KT 15/12 A3001 RMK A01 T01520123  RH  083%=      5-min Rain = 0
KAD1 160800Z 33004KT 15/12 A30 RMK A01 T01520122  RH  082%=      5-min Rain = 0
KAD1 160801Z 35005KT 15/12 A30 RMK A01 T01530122  RH  082%=      5-min Rain = 0
KAD1 160802Z 00005KT 15/12 A30 RMK A01 T01530122  RH  082%=      5-min Rain = 0
KAD1 160803Z 02006KT 15/12 A30 RMK A01 T01530123  RH  082%=      5-min Rain = 0
KAD1 160804Z 03007KT 15/12 A30 RMK A01 T01530124  RH  083%=      5-min Rain = 0
KAD1 160805Z 04006KT 15/12 A2999 RMK A01 T01520124  RH  083%=      5-min Rain = 0
KAD1 160806Z 05004KT 15/12 A2999 RMK A01 T01520124  RH  083%=      5-min Rain = 0
KAD1 160807Z 10002KT 15/12 A30 RMK A01 T01520124  RH  083%=      5-min Rain = 0
KAD1 160808Z 19002KT 15/12 A30 RMK A01 T01520123  RH  083%=      5-min Rain = 0
KAD1 160809Z 22002KT 15/12 A30 RMK A01 T01520123  RH  083%=      5-min Rain = 0
KAD1 160810Z 21004KT 15/12 A30 RMK A01 T01520123  RH  083%=      5-min Rain = 0
KAD1 160811Z 22006KT 15/12 A30 RMK A01 T01520123  RH  083%=      5-min Rain = 0
KAD1 160812Z 23006KT 15/12 A3001 RMK A01 T01520123  RH  083%=      5-min Rain = 0
KAD1 160813Z 26007KT 15/12 A3001 RMK A01 T01510123  RH  083%=      5-min Rain = 0
KAD1 160814Z 27008KT 15/12 A3001 RMK A01 T01510123  RH  084%=      5-min Rain = 0
KAD1 160815Z 26005KT 15/12 A3001 RMK A01 T01510123  RH  084%=      5-min Rain = 0
KAD1 160816Z 22003KT 15/12 A30 RMK A01 T01510123  RH  083%=      5-min Rain = 0
KAD1 160817Z 16002KT 15/12 A2999 RMK A01 T01510123  RH  083%=      5-min Rain = 0
KAD1 160818Z 16002KT 15/12 A2999 RMK A01 T01510122  RH  083%=      5-min Rain = 0
KAD1 160819Z 24002KT 15/12 A30 RMK A01 T01510122  RH  082%=      5-min Rain = 0
KAD1 160820Z 30003KT 15/12 A3001 RMK A01 T01520122  RH  082%=      5-min Rain = 0
KAD1 160821Z 35003KT 15/12 A3001 RMK A01 T01520123  RH  083%=      5-min Rain = 0
KAD1 160822Z 03003KT 15/12 A3001 RMK A01 T01520120  RH  081%=      5-min Rain = 0
KAD1 160823Z 34002KT 15/12 A30 RMK A01 T01530119  RH  080%=      5-min Rain = 0
KAD1 160824Z 32004KT 15/12 A3001 RMK A01 T01540121  RH  081%=      5-min Rain = 0
KAD1 160825Z 32003KT 15/12 A3001 RMK A01 T01540122  RH  081%=      5-min Rain = 0
KAD1 160826Z 00003KT 15/12 A3001 RMK A01 T01540121  RH  081%=      5-min Rain = 0
KAD1 160827Z 03004KT 15/12 A30 RMK A01 T01540121  RH  081%=      5-min Rain = 0
KAD1 160828Z 04006KT 15/12 A30 RMK A01 T01540121  RH  081%=      5-min Rain = 0
KAD1 160829Z 03003KT 15/12 A30 RMK A01 T01540122  RH  081%=      5-min Rain = 0
KAD1 160830Z 36001KT 15/12 A30 RMK A01 T01540122  RH  081%=      5-min Rain = 0
KAD1 160831Z 27003KT 15/12 A3001 RMK A01 T01540122  RH  081%=      5-min Rain = 0
KAD1 160832Z 25006KT 15/12 A3001 RMK A01 T01540121  RH  081%=      5-min Rain = 0
KAD1 160833Z 25009KT 15/12 A3001 RMK A01 T01540122  RH  081%=      5-min Rain = 0
KAD1 160834Z 25009KT 15/12 A3001 RMK A01 T01530123  RH  083%=      5-min Rain = 0
KAD1 160835Z 24007KT 15/12 A3001 RMK A01 T01520124  RH  083%=      5-min Rain = 0
KAD1 160836Z 24005KT 15/12 A3001 RMK A01 T01510122  RH  083%=      5-min Rain = 0
KAD1 160837Z 27004KT 15/12 A3001 RMK A01 T01510122  RH  083%=      5-min Rain = 0
KAD1 160838Z 32002KT 15/12 A30 RMK A01 T01510122  RH  082%=      5-min Rain = 0
KAD1 160839Z 05004KT 15/12 A2999 RMK A01 T01520121  RH  082%=      5-min Rain = 0
KAD1 160840Z 07007KT 15/12 A2998 RMK A01 T01510121  RH  082%=      5-min Rain = 0
KAD1 160841Z 06008KT 15/12 A2998 RMK A01 T01510122  RH  082%=      5-min Rain = 0
KAD1 160842Z 06009KT 15/12 A2998 RMK A01 T01510121  RH  082%=      5-min Rain = 0
KAD1 160843Z 06010KT 15/12 A2998 RMK A01 T01520121  RH  082%=      5-min Rain = 0
KAD1 160844Z 06009KT 15/12 A2998 RMK A01 T01510120  RH  081%=      5-min Rain = 0
KAD1 160845Z 06007KT 15/12 A2999 RMK A01 T01520119  RH  081%=      5-min Rain = 0
KAD1 160846Z 05006KT 15/12 A2999 RMK A01 T01520120  RH  081%=      5-min Rain = 0
KAD1 160847Z 06004KT 15/12 A2999 RMK A01 T01520119  RH  081%=      5-min Rain = 0
KAD1 160848Z 06003KT 15/12 A30 RMK A01 T01520119  RH  080%=      5-min Rain = 0
KAD1 160849Z 07003KT 15/12 A30 RMK A01 T01530119  RH  080%=      5-min Rain = 0
KAD1 160850Z 08002KT 15/12 A30 RMK A01 T01530119  RH  080%=      5-min Rain = 0
KAD1 160851Z 06002KT 15/12 A30 RMK A01 T01530119  RH  080%=      5-min Rain = 0
KAD1 160852Z 01002KT 15/12 A30 RMK A01 T01530120  RH  080%=      5-min Rain = 0
KAD1 160853Z 35003KT 15/12 A3001 RMK A01 T01530119  RH  080%=      5-min Rain = 0
KAD1 160854Z 34004KT 15/12 A3001 RMK A01 T01530119  RH  080%=      5-min Rain = 0
KAD1 160855Z 35004KT 15/12 A3001 RMK A01 T01530120  RH  081%=      5-min Rain = 0
KAD1 160856Z 00004KT 15/12 A3001 RMK A01 T01530120  RH  081%=      5-min Rain = 0
KAD1 160857Z 00003KT 15/12 A3001 RMK A01 T01530120  RH  081%=      5-min Rain = 0
KAD1 160858Z 02004KT 15/12 A30 RMK A01 T01530120  RH  081%=      5-min Rain = 0
KAD1 160859Z 03003KT 15/12 A30 RMK A01 T01530120  RH  081%=      5-min Rain = 0
KAD1 160900Z 03002KT 15/12 A30 RMK A01 T01530119  RH  080%=      5-min Rain = 0
KAD1 160901Z 32001KT 15/12 A30 RMK A01 T01530119  RH  080%=      5-min Rain = 0
KAD1 160902Z 28002KT 15/12 A30 RMK A01 T01530120  RH  080%=      5-min Rain = 0
KAD1 160903Z 26002KT 15/12 A30 RMK A01 T01530120  RH  081%=      5-min Rain = 0
KAD1 160904Z 24002KT 15/12 A30 RMK A01 T01530121  RH  081%=      5-min Rain = 0
KAD1 160905Z 23002KT 15/12 A30 RMK A01 T01510121  RH  082%=      5-min Rain = 0
KAD1 160906Z 22002KT 15/12 A30 RMK A01 T01500121  RH  083%=      5-min Rain = 0
KAD1 160907Z 23001KT 15/12 A30 RMK A01 T01490120  RH  083%=      5-min Rain = 0
KAD1 160908Z 00000KT 15/12 A30 RMK A01 T01490120  RH  083%=      5-min Rain = 0
KAD1 160909Z 05001KT 15/12 A30 RMK A01 T01480120  RH  083%=      5-min Rain = 0
KAD1 160910Z 04003KT 15/12 A2999 RMK A01 T01480120  RH  083%=      5-min Rain = 0
KAD1 160911Z 04004KT 15/12 A2999 RMK A01 T01490119  RH  082%=      5-min Rain = 0
KAD1 160912Z 03005KT 15/12 A2999 RMK A01 T01500120  RH  082%=      5-min Rain = 0
KAD1 160913Z 02005KT 15/12 A2999 RMK A01 T01500121  RH  083%=      5-min Rain = 0
KAD1 160914Z 02006KT 15/12 A2999 RMK A01 T01490121  RH  084%=      5-min Rain = 0
KAD1 160915Z 01007KT 15/12 A30 RMK A01 T01490121  RH  084%=      5-min Rain = 0
KAD1 160916Z 36007KT 15/12 A30 RMK A01 T01490121  RH  084%=      5-min Rain = 0
KAD1 160917Z 35007KT 15/12 A30 RMK A01 T01500121  RH  083%=      5-min Rain = 0
KAD1 160918Z 35007KT 15/12 A30 RMK A01 T01510121  RH  082%=      5-min Rain = 0
KAD1 160919Z 35007KT 15/12 A30 RMK A01 T01510121  RH  082%=      5-min Rain = 0
KAD1 160920Z 35008KT 15/12 A30 RMK A01 T01520121  RH  082%=      5-min Rain = 0
KAD1 160921Z 35007KT 15/12 A30 RMK A01 T01520121  RH  082%=      5-min Rain = 0
KAD1 160922Z 36007KT 15/12 A30 RMK A01 T01510122  RH  082%=      5-min Rain = 0
KAD1 160923Z 00007KT 15/12 A30 RMK A01 T01510122  RH  083%=      5-min Rain = 0
KAD1 160924Z 00007KT 15/12 A30 RMK A01 T01510121  RH  083%=      5-min Rain = 0
KAD1 160925Z 00007KT 15/12 A30 RMK A01 T01510122  RH  083%=      5-min Rain = 0
KAD1 160926Z 00007KT 15/12 A30 RMK A01 T01510122  RH  083%=      5-min Rain = 0
KAD1 160927Z 35007KT 15/12 A30 RMK A01 T01500122  RH  083%=      5-min Rain = 0
KAD1 160928Z 36006KT 15/12 A30 RMK A01 T01500122  RH  083%=      5-min Rain = 0
KAD1 160929Z 36006KT 15/12 A30 RMK A01 T01500122  RH  083%=      5-min Rain = 0
KAD1 160930Z 00007KT 15/12 A30 RMK A01 T01500123  RH  083%=      5-min Rain = 0
KAD1 160931Z 36008KT 15/12 A30 RMK A01 T01500123  RH  084%=      5-min Rain = 0
KAD1 160932Z 35009KT 15/12 A30 RMK A01 T01500123  RH  084%=      5-min Rain = 0
KAD1 160933Z 35008KT 15/12 A3001 RMK A01 T01500122  RH  083%=      5-min Rain = 0
KAD1 160934Z 35008KT 15/12 A3001 RMK A01 T01500122  RH  083%=      5-min Rain = 0
KAD1 160935Z 35009KT 15/12 A3001 RMK A01 T01510122  RH  083%=      5-min Rain = 0
KAD1 160936Z 34009KT 15/12 A3001 RMK A01 T01510122  RH  083%=      5-min Rain = 0
KAD1 160937Z 34009KT 15/12 A3001 RMK A01 T01510122  RH  083%=      5-min Rain = 0
KAD1 160938Z 34009KT 15/12 A3001 RMK A01 T01510123  RH  083%=      5-min Rain = 0
KAD1 160939Z 34010KT 15/12 A3001 RMK A01 T01510123  RH  083%=      5-min Rain = 0
KAD1 160940Z 34011KT 15/12 A3001 RMK A01 T01510123  RH  083%=      5-min Rain = 0
KAD1 160941Z 34012KT 15/12 A3001 RMK A01 T01510122  RH  083%=      5-min Rain = 0
KAD1 160942Z 34012KT 15/12 A3001 RMK A01 T01510122  RH  083%=      5-min Rain = 0
KAD1 160943Z 34012KT 15/12 A3001 RMK A01 T01510123  RH  083%=      5-min Rain = 0
KAD1 160944Z 34011KT 15/12 A30 RMK A01 T01510123  RH  084%=      5-min Rain = 0
KAD1 160945Z 34010KT 15/12 A30 RMK A01 T01510123  RH  084%=      5-min Rain = 0
KAD1 160946Z 34010KT 15/12 A30 RMK A01 T01500124  RH  084%=      5-min Rain = 0
KAD1 160947Z 34009KT 15/12 A3001 RMK A01 T01500123  RH  084%=      5-min Rain = 0
KAD1 160948Z 34008KT 15/12 A3001 RMK A01 T01500124  RH  084%=      5-min Rain = 0
KAD1 160949Z 34007KT 15/12 A3001 RMK A01 T01500124  RH  084%=      5-min Rain = 0
KAD1 160950Z 33008KT 15/12 A3001 RMK A01 T01500124  RH  084%=      5-min Rain = 0
KAD1 160951Z 33007KT 15/12 A3001 RMK A01 T01500124  RH  084%=      5-min Rain = 0
KAD1 160952Z 32008KT 15/12 A3001 RMK A01 T01500124  RH  085%=      5-min Rain = 0
KAD1 160953Z 32007KT 15/12 A3001 RMK A01 T01490124  RH  085%=      5-min Rain = 0
KAD1 160954Z 32007KT 15/12 A3001 RMK A01 T01490124  RH  085%=      5-min Rain = 0
KAD1 160955Z 33007KT 15/12 A3001 RMK A01 T01490124  RH  085%=      5-min Rain = 0
KAD1 160956Z 32007KT 15/12 A3001 RMK A01 T01490124  RH  085%=      5-min Rain = 0
KAD1 160957Z 32008KT 15/12 A3001 RMK A01 T01490123  RH  084%=      5-min Rain = 0
KAD1 160958Z 32008KT 15/12 A3002 RMK A01 T01490123  RH  084%=      5-min Rain = 0
KAD1 160959Z 32008KT 15/12 A3002 RMK A01 T01490123  RH  084%=      5-min Rain = 0
KAD1 161000Z 32007KT 15/12 A3002 RMK A01 T01500123  RH  084%=      5-min Rain = 0
KAD1 161001Z 32007KT 15/12 A3002 RMK A01 T01500124  RH  084%=      5-min Rain = 0
KAD1 161002Z 33008KT 15/12 A3002 RMK A01 T01500124  RH  085%=      5-min Rain = 0
KAD1 161003Z 33008KT 15/12 A3002 RMK A01 T01500124  RH  085%=      5-min Rain = 0
KAD1 161004Z 33008KT 15/13 A3002 RMK A01 T01500125  RH  085%=      5-min Rain = 0
KAD1 161005Z 32008KT 15/13 A3002 RMK A01 T01500125  RH  085%=      5-min Rain = 0
KAD1 161006Z 32010KT 15/13 A3002 RMK A01 T01490125  RH  085%=      5-min Rain = 0
KAD1 161007Z 33009KT 15/13 A3002 RMK A01 T01490125  RH  085%=      5-min Rain = 0
KAD1 161008Z 33010KT 15/13 A3002 RMK A01 T01490125  RH  086%=      5-min Rain = 0
KAD1 161009Z 33010KT 15/13 A3002 RMK A01 T01490125  RH  085%=      5-min Rain = 0
KAD1 161010Z 33008KT 15/13 A3002 RMK A01 T01490125  RH  085%=      5-min Rain = 0
KAD1 161011Z 33008KT 15/13 A3002 RMK A01 T01490125  RH  086%=      5-min Rain = 0
KAD1 161012Z 33008KT 15/13 A3002 RMK A01 T01490126  RH  086%=      5-min Rain = 0
KAD1 161013Z 33009KT 15/13 A3002 RMK A01 T01490126  RH  086%=      5-min Rain = 0
KAD1 161014Z 33009KT 15/13 A3002 RMK A01 T01480126  RH  087%=      5-min Rain = 0
KAD1 161015Z 33009KT 15/13 A3002 RMK A01 T01480126  RH  087%=      5-min Rain = 0
KAD1 161016Z 33008KT 15/13 A3002 RMK A01 T01480126  RH  087%=      5-min Rain = 0
KAD1 161017Z 34008KT 15/13 A3002 RMK A01 T01480127  RH  087%=      5-min Rain = 0
KAD1 161018Z 34007KT 15/13 A3002 RMK A01 T01480126  RH  087%=      5-min Rain = 0
KAD1 161019Z 34007KT 15/13 A3002 RMK A01 T01480126  RH  087%=      5-min Rain = 0
KAD1 161020Z 34007KT 15/13 A3002 RMK A01 T01480126  RH  087%=      5-min Rain = 0
KAD1 161021Z 34006KT 15/13 A3002 RMK A01 T01480126  RH  087%=      5-min Rain = 0
KAD1 161022Z 34007KT 15/13 A3002 RMK A01 T01480126  RH  087%=      5-min Rain = 0
KAD1 161023Z 34006KT 15/13 A3002 RMK A01 T01480125  RH  086%=      5-min Rain = 0
KAD1 161024Z 34007KT 15/13 A3002 RMK A01 T01480126  RH  086%=      5-min Rain = 0
KAD1 161025Z 34006KT 15/13 A3002 RMK A01 T01480126  RH  087%=      5-min Rain = 0
KAD1 161026Z 35006KT 15/13 A3002 RMK A01 T01480126  RH  087%=      5-min Rain = 0
KAD1 161027Z 35007KT 15/13 A3003 RMK A01 T01480126  RH  087%=      5-min Rain = 0
KAD1 161028Z 35007KT 15/13 A3003 RMK A01 T01480126  RH  086%=      5-min Rain = 0
KAD1 161029Z 35007KT 15/13 A3003 RMK A01 T01480125  RH  086%=      5-min Rain = 0
KAD1 161030Z 35007KT 15/13 A3003 RMK A01 T01490125  RH  085%=      5-min Rain = 0
KAD1 161031Z 35007KT 15/12 A3003 RMK A01 T01490124  RH  085%=      5-min Rain = 0
KAD1 161032Z 35006KT 15/12 A3003 RMK A01 T01500124  RH  085%=      5-min Rain = 0
KAD1 161033Z 35006KT 15/12 A3003 RMK A01 T01490124  RH  085%=      5-min Rain = 0
KAD1 161034Z 34005KT 15/12 A3003 RMK A01 T01490124  RH  085%=      5-min Rain = 0
KAD1 161035Z 33004KT 15/12 A3003 RMK A01 T01490124  RH  085%=      5-min Rain = 0
KAD1 161036Z 33003KT 15/12 A3003 RMK A01 T01490124  RH  085%=      5-min Rain = 0
KAD1 161037Z 32002KT 15/13 A3003 RMK A01 T01490125  RH  085%=      5-min Rain = 0
KAD1 161038Z 33003KT 15/13 A3003 RMK A01 T01490125  RH  086%=      5-min Rain = 0
KAD1 161039Z 31003KT 15/13 A3003 RMK A01 T01490125  RH  086%=      5-min Rain = 0
KAD1 161040Z 31002KT 15/13 A3003 RMK A01 T01490126  RH  086%=      5-min Rain = 0
KAD1 161041Z 32003KT 15/13 A3003 RMK A01 T01480126  RH  086%=      5-min Rain = 0
KAD1 161042Z 32003KT 15/13 A3003 RMK A01 T01480125  RH  086%=      5-min Rain = 0
KAD1 161043Z 30001KT 15/13 A3004 RMK A01 T01480125  RH  086%=      5-min Rain = 0
KAD1 161044Z 32001KT 15/13 A3004 RMK A01 T01480125  RH  086%=      5-min Rain = 0
KAD1 161045Z 33003KT 15/13 A3004 RMK A01 T01480125  RH  086%=      5-min Rain = 0
KAD1 161046Z 33003KT 15/12 A3004 RMK A01 T01480124  RH  085%=      5-min Rain = 0
KAD1 161047Z 33005KT 15/12 A3004 RMK A01 T01480123  RH  085%=      5-min Rain = 0
KAD1 161048Z 35005KT 15/12 A3004 RMK A01 T01490124  RH  085%=      5-min Rain = 0
KAD1 161049Z 34005KT 15/12 A3004 RMK A01 T01490123  RH  085%=      5-min Rain = 0
KAD1 161050Z 34005KT 15/12 A3004 RMK A01 T01490124  RH  085%=      5-min Rain = 0
KAD1 161051Z 35007KT 15/12 A3004 RMK A01 T01500124  RH  085%=      5-min Rain = 0
KAD1 161052Z 35006KT 15/12 A3004 RMK A01 T01500124  RH  085%=      5-min Rain = 0
KAD1 161053Z 35006KT 15/12 A3004 RMK A01 T01490124  RH  085%=      5-min Rain = 0
KAD1 161054Z 36006KT 15/12 A3004 RMK A01 T01490124  RH  085%=      5-min Rain = 0
KAD1 161055Z 35006KT 15/12 A3004 RMK A01 T01490124  RH  085%=      5-min Rain = 0
KAD1 161056Z 35007KT 15/13 A3004 RMK A01 T01490125  RH  085%=      5-min Rain = 0
KAD1 161057Z 35005KT 15/12 A3004 RMK A01 T01490124  RH  085%=      5-min Rain = 0
KAD1 161058Z 00004KT 15/12 A3004 RMK A01 T01490124  RH  085%=      5-min Rain = 0
KAD1 161059Z 36006KT 15/13 A3004 RMK A01 T01490125  RH  085%=      5-min Rain = 0
KAD1 161100Z 35005KT 15/13 A3004 RMK A01 T01490125  RH  086%=      5-min Rain = 0
KAD1 161101Z 35006KT 15/13 A3004 RMK A01 T01490125  RH  086%=      5-min Rain = 0
KAD1 161102Z 34006KT 15/13 A3004 RMK A01 T01490125  RH  086%=      5-min Rain = 0
KAD1 161103Z 34007KT 15/13 A3004 RMK A01 T01480125  RH  086%=      5-min Rain = 0
KAD1 161104Z 35007KT 15/13 A3004 RMK A01 T01480125  RH  086%=      5-min Rain = 0
KAD1 161105Z 35008KT 15/13 A3004 RMK A01 T01480125  RH  086%=      5-min Rain = 0
KAD1 161106Z 00008KT 15/12 A3004 RMK A01 T01480124  RH  086%=      5-min Rain = 0
KAD1 161107Z 00009KT 15/12 A3004 RMK A01 T01480124  RH  086%=      5-min Rain = 0
KAD1 161108Z 36008KT 15/13 A3004 RMK A01 T01490125  RH  086%=      5-min Rain = 0
KAD1 161109Z 36008KT 15/13 A3004 RMK A01 T01480125  RH  086%=      5-min Rain = 0
KAD1 161110Z 35009KT 15/13 A3004 RMK A01 T01480125  RH  086%=      5-min Rain = 0
KAD1 161111Z 00010KT 15/13 A3004 RMK A01 T01480125  RH  086%=      5-min Rain = 0
KAD1 161112Z 00007KT 15/12 A3004 RMK A01 T01480124  RH  086%=      5-min Rain = 0
KAD1 161113Z 00007KT 15/13 A3004 RMK A01 T01480125  RH  086%=      5-min Rain = 0
KAD1 161114Z 01007KT 15/13 A3004 RMK A01 T01480125  RH  087%=      5-min Rain = 0
KAD1 161115Z 01007KT 15/13 A3004 RMK A01 T01470125  RH  087%=      5-min Rain = 0
KAD1 161116Z 01006KT 15/13 A3004 RMK A01 T01470125  RH  087%=      5-min Rain = 0
KAD1 161117Z 00006KT 15/13 A3004 RMK A01 T01470126  RH  087%=      5-min Rain = 0
KAD1 161118Z 00008KT 15/13 A3004 RMK A01 T01470126  RH  087%=      5-min Rain = 0
KAD1 161119Z 00008KT 15/13 A3004 RMK A01 T01470126  RH  087%=      5-min Rain = 0
KAD1 161120Z 36007KT 15/13 A3004 RMK A01 T01460125  RH  087%=      5-min Rain = 0
KAD1 161121Z 36008KT 15/13 A3004 RMK A01 T01460125  RH  087%=      5-min Rain = 0
KAD1 161122Z 00008KT 15/13 A3004 RMK A01 T01460126  RH  087%=      5-min Rain = 0
KAD1 161123Z 36007KT 15/13 A3004 RMK A01 T01460126  RH  087%=      5-min Rain = 0
KAD1 161124Z 00008KT 15/13 A3004 RMK A01 T01460125  RH  087%=      5-min Rain = 0
KAD1 161125Z 35007KT 15/13 A3004 RMK A01 T01460126  RH  088%=      5-min Rain = 0
KAD1 161126Z 00006KT 15/13 A3004 RMK A01 T01460126  RH  088%=      5-min Rain = 0
KAD1 161127Z 00006KT 15/13 A3004 RMK A01 T01460126  RH  088%=      5-min Rain = 0
KAD1 161128Z 00006KT 15/13 A3004 RMK A01 T01460126  RH  088%=      5-min Rain = 0
KAD1 161129Z 00007KT 15/13 A3004 RMK A01 T01460126  RH  088%=      5-min Rain = 0
KAD1 161130Z 36007KT 15/13 A3005 RMK A01 T01460126  RH  088%=      5-min Rain = 0
KAD1 161131Z 36007KT 15/13 A3005 RMK A01 T01450126  RH  088%=      5-min Rain = 0
KAD1 161132Z 35007KT 15/13 A3005 RMK A01 T01450126  RH  088%=      5-min Rain = 0
KAD1 161133Z 36006KT 15/13 A3005 RMK A01 T01450126  RH  088%=      5-min Rain = 0
KAD1 161134Z 00005KT 15/13 A3005 RMK A01 T01450126  RH  088%=      5-min Rain = 0
KAD1 161135Z 01005KT 15/13 A3005 RMK A01 T01450125  RH  088%=      5-min Rain = 0
KAD1 161136Z 01007KT 15/13 A3005 RMK A01 T01450126  RH  088%=      5-min Rain = 0
KAD1 161137Z 00007KT 14/13 A3005 RMK A01 T01440125  RH  088%=      5-min Rain = 0
KAD1 161138Z 01006KT 14/13 A3005 RMK A01 T01440125  RH  088%=      5-min Rain = 0
KAD1 161139Z 00005KT 14/13 A3005 RMK A01 T01440125  RH  088%=      5-min Rain = 0
KAD1 161140Z 36005KT 14/13 A3005 RMK A01 T01440125  RH  088%=      5-min Rain = 0
KAD1 161141Z 36006KT 14/13 A3005 RMK A01 T01440126  RH  089%=      5-min Rain = 0
KAD1 161142Z 36006KT 14/13 A3005 RMK A01 T01440126  RH  089%=      5-min Rain = 0
KAD1 161143Z 35007KT 14/13 A3005 RMK A01 T01440126  RH  089%=      5-min Rain = 0
KAD1 161144Z 35008KT 14/13 A3005 RMK A01 T01440125  RH  089%=      5-min Rain = 0
KAD1 161145Z 36008KT 14/13 A3005 RMK A01 T01440125  RH  088%=      5-min Rain = 0
KAD1 161146Z 36006KT 15/13 A3005 RMK A01 T01450125  RH  088%=      5-min Rain = 0
KAD1 161147Z 35005KT 15/13 A3005 RMK A01 T01450126  RH  088%=      5-min Rain = 0
KAD1 161148Z 00005KT 15/13 A3005 RMK A01 T01450125  RH  088%=      5-min Rain = 0
KAD1 161149Z 01005KT 14/13 A3005 RMK A01 T01440126  RH  088%=      5-min Rain = 0
KAD1 161150Z 01003KT 14/13 A3005 RMK A01 T01440126  RH  088%=      5-min Rain = 0
KAD1 161151Z 01005KT 14/13 A3005 RMK A01 T01440126  RH  089%=      5-min Rain = 0
KAD1 161152Z 36005KT 14/13 A3005 RMK A01 T01440126  RH  089%=      5-min Rain = 0
KAD1 161153Z 00005KT 14/13 A3005 RMK A01 T01440126  RH  089%=      5-min Rain = 0
KAD1 161154Z 00005KT 14/13 A3005 RMK A01 T01440126  RH  089%=      5-min Rain = 0
KAD1 161155Z 00004KT 14/13 A3005 RMK A01 T01440126  RH  089%=      5-min Rain = 0
KAD1 161156Z 00004KT 14/13 A3005 RMK A01 T01440126  RH  089%=      5-min Rain = 0
KAD1 161157Z 00004KT 14/13 A3005 RMK A01 T01430126  RH  089%=      5-min Rain = 0
KAD1 161158Z 00005KT 14/13 A3005 RMK A01 T01440126  RH  089%=      5-min Rain = 0
KAD1 161159Z 01006KT 14/13 A3005 RMK A01 T01430126  RH  089%=      5-min Rain = 0
KAD1 161200Z 01006KT 14/13 A3005 RMK A01 T01430126  RH  089%=      5-min Rain = 0
KAD1 161201Z 01006KT 14/13 A3005 RMK A01 T01430126  RH  089%=      5-min Rain = 0
KAD1 161202Z 01006KT 14/13 A3005 RMK A01 T01440126  RH  089%=      5-min Rain = 0
KAD1 161203Z 01006KT 14/13 A3005 RMK A01 T01440126  RH  089%=      5-min Rain = 0
KAD1 161204Z 01006KT 14/13 A3005 RMK A01 T01440126  RH  089%=      5-min Rain = 0
KAD1 161205Z 01006KT 14/13 A3005 RMK A01 T01440126  RH  089%=      5-min Rain = 0
KAD1 161206Z 01005KT 14/13 A3005 RMK A01 T01440126  RH  089%=      5-min Rain = 0
KAD1 161207Z 01006KT 14/13 A3005 RMK A01 T01440126  RH  089%=      5-min Rain = 0
KAD1 161208Z 02006KT 14/13 A3005 RMK A01 T01440126  RH  089%=      5-min Rain = 0
KAD1 161209Z 02006KT 14/13 A3005 RMK A01 T01440126  RH  089%=      5-min Rain = 0
KAD1 161210Z 01006KT 14/13 A3005 RMK A01 T01440126  RH  089%=      5-min Rain = 0
KAD1 161211Z 01006KT 14/13 A3005 RMK A01 T01440126  RH  089%=      5-min Rain = 0
KAD1 161212Z 01006KT 14/13 A3005 RMK A01 T01440126  RH  089%=      5-min Rain = 0
KAD1 161213Z 01006KT 15/13 A3005 RMK A01 T01450126  RH  089%=      5-min Rain = 0
KAD1 161214Z 01006KT 15/13 A3005 RMK A01 T01450126  RH  089%=      5-min Rain = 0
KAD1 161215Z 01006KT 15/13 A3005 RMK A01 T01450127  RH  089%=      5-min Rain = 0
KAD1 161216Z 01007KT 15/13 A3005 RMK A01 T01450127  RH  089%=      5-min Rain = 0
KAD1 161217Z 01007KT 15/13 A3005 RMK A01 T01450126  RH  089%=      5-min Rain = 0
KAD1 161218Z 01007KT 15/13 A3005 RMK A01 T01450127  RH  089%=      5-min Rain = 0
KAD1 161219Z 01006KT 15/13 A3005 RMK A01 T01450127  RH  089%=      5-min Rain = 0
KAD1 161220Z 02006KT 15/13 A3005 RMK A01 T01450127  RH  089%=      5-min Rain = 0
KAD1 161221Z 02006KT 15/13 A3005 RMK A01 T01450127  RH  089%=      5-min Rain = 0
KAD1 161222Z 02006KT 15/13 A3005 RMK A01 T01450127  RH  089%=      5-min Rain = 0
KAD1 161223Z 01006KT 15/13 A3005 RMK A01 T01450127  RH  088%=      5-min Rain = 0
KAD1 161224Z 01006KT 15/13 A3005 RMK A01 T01460127  RH  088%=      5-min Rain = 0
KAD1 161225Z 01005KT 15/13 A3005 RMK A01 T01460126  RH  088%=      5-min Rain = 0
KAD1 161226Z 00005KT 15/13 A3005 RMK A01 T01460126  RH  088%=      5-min Rain = 0
KAD1 161227Z 00005KT 15/13 A3005 RMK A01 T01460127  RH  088%=      5-min Rain = 0
KAD1 161228Z 36004KT 15/13 A3005 RMK A01 T01460127  RH  088%=      5-min Rain = 0
KAD1 161229Z 00005KT 15/13 A3005 RMK A01 T01460127  RH  088%=      5-min Rain = 0
KAD1 161230Z 00004KT 15/13 A3005 RMK A01 T01460126  RH  088%=      5-min Rain = 0
KAD1 161231Z 01003KT 15/13 A3005 RMK A01 T01460126  RH  088%=      5-min Rain = 0
KAD1 161232Z 00005KT 15/13 A3005 RMK A01 T01470127  RH  088%=      5-min Rain = 0
KAD1 161233Z 00005KT 15/13 A3005 RMK A01 T01460126  RH  088%=      5-min Rain = 0
KAD1 161234Z 00004KT 15/13 A3005 RMK A01 T01470126  RH  087%=      5-min Rain = 0
KAD1 161235Z 00004KT 15/13 A3005 RMK A01 T01470126  RH  087%=      5-min Rain = 0
KAD1 161236Z 00004KT 15/13 A3005 RMK A01 T01480127  RH  087%=      5-min Rain = 0
KAD1 161237Z 01005KT 15/13 A3005 RMK A01 T01480127  RH  088%=      5-min Rain = 0
KAD1 161238Z 00005KT 15/13 A3005 RMK A01 T01470127  RH  087%=      5-min Rain = 0
KAD1 161239Z 00006KT 15/13 A3005 RMK A01 T01480127  RH  087%=      5-min Rain = 0
KAD1 161240Z 00006KT 15/13 A3005 RMK A01 T01480128  RH  087%=      5-min Rain = 0
KAD1 161241Z 36006KT 15/13 A3005 RMK A01 T01480128  RH  087%=      5-min Rain = 0
KAD1 161242Z 36006KT 15/13 A3005 RMK A01 T01490128  RH  087%=      5-min Rain = 0
KAD1 161243Z 00006KT 15/13 A3005 RMK A01 T01490128  RH  087%=      5-min Rain = 0
KAD1 161244Z 36005KT 15/13 A3005 RMK A01 T01480127  RH  087%=      5-min Rain = 0
KAD1 161245Z 36005KT 15/13 A3005 RMK A01 T01480127  RH  087%=      5-min Rain = 0
KAD1 161246Z 36005KT 15/13 A3005 RMK A01 T01490127  RH  087%=      5-min Rain = 0
KAD1 161247Z 00004KT 15/13 A3005 RMK A01 T01490127  RH  087%=      5-min Rain = 0
KAD1 161248Z 35004KT 15/13 A3005 RMK A01 T01490127  RH  087%=      5-min Rain = 0
KAD1 161249Z 35005KT 15/13 A3005 RMK A01 T01490127  RH  087%=      5-min Rain = 0
KAD1 161250Z 35004KT 15/13 A3005 RMK A01 T01490127  RH  087%=      5-min Rain = 0
KAD1 161251Z 35005KT 15/13 A3005 RMK A01 T01500127  RH  086%=      5-min Rain = 0
KAD1 161252Z 36006KT 15/13 A3005 RMK A01 T01500127  RH  086%=      5-min Rain = 0
KAD1 161253Z 35005KT 15/13 A3005 RMK A01 T01500127  RH  086%=      5-min Rain = 0
KAD1 161254Z 35006KT 15/13 A3005 RMK A01 T01500127  RH  086%=      5-min Rain = 0
KAD1 161255Z 36007KT 15/13 A3005 RMK A01 T01500127  RH  086%=      5-min Rain = 0
KAD1 161256Z 35006KT 15/13 A3005 RMK A01 T01500128  RH  086%=      5-min Rain = 0
KAD1 161257Z 35006KT 15/13 A3005 RMK A01 T01500128  RH  086%=      5-min Rain = 0
KAD1 161258Z 35006KT 15/13 A3005 RMK A01 T01500128  RH  086%=      5-min Rain = 0
KAD1 161259Z 35006KT 15/13 A3005 RMK A01 T01510128  RH  086%=      5-min Rain = 0
KAD1 161300Z 35006KT 15/13 A3005 RMK A01 T01510128  RH  086%=      5-min Rain = 0
KAD1 161301Z 36006KT 15/13 A3005 RMK A01 T01510128  RH  086%=      5-min Rain = 0
KAD1 161302Z 00004KT 15/13 A3005 RMK A01 T01510128  RH  086%=      5-min Rain = 0
KAD1 161303Z 35005KT 15/13 A3005 RMK A01 T01510129  RH  087%=      5-min Rain = 0
KAD1 161304Z 00005KT 15/13 A3005 RMK A01 T01510129  RH  086%=      5-min Rain = 0
KAD1 161305Z 36005KT 15/13 A3005 RMK A01 T01510129  RH  086%=      5-min Rain = 0
KAD1 161306Z 36004KT 15/13 A3005 RMK A01 T01510129  RH  086%=      5-min Rain = 0
KAD1 161307Z 36004KT 15/13 A3005 RMK A01 T01510128  RH  086%=      5-min Rain = 0
KAD1 161308Z 35003KT 15/13 A3005 RMK A01 T01510128  RH  086%=      5-min Rain = 0
KAD1 161309Z 34003KT 15/13 A3005 RMK A01 T01520129  RH  086%=      5-min Rain = 0
KAD1 161310Z 33002KT 15/13 A3005 RMK A01 T01520128  RH  086%=      5-min Rain = 0
KAD1 161311Z 33003KT 15/13 A3005 RMK A01 T01520129  RH  086%=      5-min Rain = 0
KAD1 161312Z 33003KT 15/13 A3005 RMK A01 T01520128  RH  086%=      5-min Rain = 0
KAD1 161313Z 33003KT 15/13 A3005 RMK A01 T01520129  RH  086%=      5-min Rain = 0
KAD1 161314Z 33003KT 15/13 A3005 RMK A01 T01520129  RH  086%=      5-min Rain = 0
KAD1 161315Z 33003KT 15/13 A3005 RMK A01 T01530129  RH  086%=      5-min Rain = 0
KAD1 161316Z 32004KT 15/13 A3005 RMK A01 T01530129  RH  086%=      5-min Rain = 0
KAD1 161317Z 33003KT 15/13 A3005 RMK A01 T01530129  RH  086%=      5-min Rain = 0
KAD1 161318Z 33004KT 15/13 A3005 RMK A01 T01530129  RH  086%=      5-min Rain = 0
KAD1 161319Z 33003KT 15/13 A3005 RMK A01 T01530129  RH  086%=      5-min Rain = 0
KAD1 161320Z 32003KT 15/13 A3005 RMK A01 T01530129  RH  086%=      5-min Rain = 0
KAD1 161321Z 33003KT 15/13 A3005 RMK A01 T01530129  RH  086%=      5-min Rain = 0
KAD1 161322Z 31003KT 15/13 A3005 RMK A01 T01530128  RH  085%=      5-min Rain = 0
KAD1 161323Z 30003KT 15/13 A3005 RMK A01 T01530128  RH  085%=      5-min Rain = 0
KAD1 161324Z 31003KT 15/13 A3005 RMK A01 T01530129  RH  085%=      5-min Rain = 0
KAD1 161325Z 31003KT 15/13 A3005 RMK A01 T01530128  RH  085%=      5-min Rain = 0
KAD1 161326Z 31003KT 15/13 A3005 RMK A01 T01530129  RH  085%=      5-min Rain = 0
KAD1 161327Z 31003KT 15/13 A3005 RMK A01 T01530128  RH  085%=      5-min Rain = 0
KAD1 161328Z 31003KT 15/13 A3006 RMK A01 T01540129  RH  085%=      5-min Rain = 0
KAD1 161329Z 30004KT 15/13 A3006 RMK A01 T01540130  RH  085%=      5-min Rain = 0
KAD1 161330Z 30004KT 15/13 A3006 RMK A01 T01540129  RH  085%=      5-min Rain = 0
KAD1 161331Z 31004KT 15/13 A3006 RMK A01 T01540130  RH  085%=      5-min Rain = 0
KAD1 161332Z 32004KT 15/13 A3006 RMK A01 T01540130  RH  086%=      5-min Rain = 0
KAD1 161333Z 33005KT 15/13 A3006 RMK A01 T01540129  RH  085%=      5-min Rain = 0
KAD1 161334Z 33005KT 15/13 A3006 RMK A01 T01540130  RH  086%=      5-min Rain = 0
KAD1 161335Z 32005KT 15/13 A3006 RMK A01 T01540130  RH  086%=      5-min Rain = 0
KAD1 161336Z 33005KT 15/13 A3006 RMK A01 T01530130  RH  086%=      5-min Rain = 0
KAD1 161337Z 32005KT 15/13 A3006 RMK A01 T01530131  RH  087%=      5-min Rain = 0
KAD1 161338Z 33005KT 15/13 A3006 RMK A01 T01540132  RH  087%=      5-min Rain = 0
KAD1 161339Z 33005KT 15/13 A3006 RMK A01 T01540132  RH  086%=      5-min Rain = 0
KAD1 161340Z 32005KT 15/13 A3006 RMK A01 T01540131  RH  086%=      5-min Rain = 0
KAD1 161341Z 31005KT 15/13 A3006 RMK A01 T01540131  RH  086%=      5-min Rain = 0
KAD1 161342Z 32005KT 15/13 A3006 RMK A01 T01540132  RH  086%=      5-min Rain = 0
KAD1 161343Z 33004KT 15/13 A3006 RMK A01 T01540131  RH  086%=      5-min Rain = 0
KAD1 161344Z 32004KT 15/13 A3006 RMK A01 T01540131  RH  086%=      5-min Rain = 0
KAD1 161345Z 32004KT 15/13 A3006 RMK A01 T01540132  RH  086%=      5-min Rain = 0
KAD1 161346Z 32005KT 16/13 A3006 RMK A01 T01550132  RH  086%=      5-min Rain = 0
KAD1 161347Z 32004KT 16/13 A3006 RMK A01 T01550131  RH  086%=      5-min Rain = 0
KAD1 161348Z 31005KT 16/13 A3006 RMK A01 T01550132  RH  086%=      5-min Rain = 0
KAD1 161349Z 31005KT 16/13 A3006 RMK A01 T01550131  RH  086%=      5-min Rain = 0
KAD1 161350Z 31005KT 16/13 A3006 RMK A01 T01550132  RH  086%=      5-min Rain = 0
KAD1 161351Z 32005KT 16/13 A3006 RMK A01 T01550131  RH  086%=      5-min Rain = 0
KAD1 161352Z 31005KT 16/13 A3006 RMK A01 T01550132  RH  086%=      5-min Rain = 0
KAD1 161353Z 32006KT 16/13 A3006 RMK A01 T01550131  RH  086%=      5-min Rain = 0
KAD1 161354Z 31005KT 16/13 A3006 RMK A01 T01550131  RH  086%=      5-min Rain = 0
KAD1 161355Z 31005KT 16/13 A3006 RMK A01 T01550132  RH  086%=      5-min Rain = 0
KAD1 161356Z 31006KT 16/13 A3006 RMK A01 T01550132  RH  086%=      5-min Rain = 0
KAD1 161357Z 31006KT 16/13 A3006 RMK A01 T01560132  RH  085%=      5-min Rain = 0
KAD1 161358Z 31006KT 16/13 A3006 RMK A01 T01560131  RH  085%=      5-min Rain = 0
KAD1 161359Z 31004KT 16/13 A3006 RMK A01 T01560131  RH  085%=      5-min Rain = 0
KAD1 161400Z 32004KT 16/13 A3006 RMK A01 T01570132  RH  085%=      5-min Rain = 0
KAD1 161401Z 32005KT 16/13 A3006 RMK A01 T01570132  RH  085%=      5-min Rain = 0
KAD1 161402Z 32004KT 16/13 A3006 RMK A01 T01570131  RH  085%=      5-min Rain = 0
KAD1 161403Z 32004KT 16/13 A3006 RMK A01 T01570132  RH  085%=      5-min Rain = 0
KAD1 161404Z 33005KT 16/13 A3006 RMK A01 T01570133  RH  085%=      5-min Rain = 0
KAD1 161405Z 33004KT 16/13 A3006 RMK A01 T01570131  RH  084%=      5-min Rain = 0
KAD1 161406Z 31005KT 16/13 A3006 RMK A01 T01580132  RH  085%=      5-min Rain = 0
KAD1 161407Z 32005KT 16/13 A3006 RMK A01 T01580132  RH  085%=      5-min Rain = 0
KAD1 161408Z 32006KT 16/13 A3006 RMK A01 T01580132  RH  085%=      5-min Rain = 0
KAD1 161409Z 32006KT 16/13 A3006 RMK A01 T01590132  RH  084%=      5-min Rain = 0
KAD1 161410Z 33005KT 16/13 A3006 RMK A01 T01580132  RH  084%=      5-min Rain = 0
KAD1 161411Z 32006KT 16/13 A3006 RMK A01 T01580132  RH  084%=      5-min Rain = 0
KAD1 161412Z 32005KT 16/13 A3006 RMK A01 T01590133  RH  085%=      5-min Rain = 0
KAD1 161413Z 31005KT 16/13 A3006 RMK A01 T01590134  RH  085%=      5-min Rain = 0
KAD1 161414Z 31006KT 16/13 A3006 RMK A01 T01600134  RH  084%=      5-min Rain = 0
KAD1 161415Z 31005KT 16/13 A3006 RMK A01 T01600134  RH  084%=      5-min Rain = 0
KAD1 161416Z 31005KT 16/13 A3006 RMK A01 T01600133  RH  084%=      5-min Rain = 0
KAD1 161417Z 31005KT 16/13 A3006 RMK A01 T01600132  RH  084%=      5-min Rain = 0
KAD1 161418Z 31005KT 16/13 A3006 RMK A01 T01600132  RH  084%=      5-min Rain = 0
KAD1 161419Z 31006KT 16/13 A3006 RMK A01 T01600132  RH  084%=      5-min Rain = 0
KAD1 161420Z 31005KT 16/13 A3006 RMK A01 T01600133  RH  084%=      5-min Rain = 0
KAD1 161421Z 29006KT 16/13 A3006 RMK A01 T01610133  RH  084%=      5-min Rain = 0
KAD1 161422Z 29006KT 16/13 A3006 RMK A01 T01610133  RH  083%=      5-min Rain = 0
KAD1 161423Z 30006KT 16/13 A3006 RMK A01 T01610133  RH  083%=      5-min Rain = 0
KAD1 161424Z 31006KT 16/13 A3006 RMK A01 T01620132  RH  082%=      5-min Rain = 0
KAD1 161425Z 31005KT 16/13 A3006 RMK A01 T01630133  RH  083%=      5-min Rain = 0
KAD1 161426Z 32006KT 16/13 A3006 RMK A01 T01630134  RH  083%=      5-min Rain = 0
KAD1 161427Z 31007KT 16/13 A3007 RMK A01 T01630134  RH  083%=      5-min Rain = 0
KAD1 161428Z 30008KT 16/13 A3007 RMK A01 T01630133  RH  082%=      5-min Rain = 0
KAD1 161429Z 31007KT 16/13 A3007 RMK A01 T01630134  RH  083%=      5-min Rain = 0
KAD1 161430Z 32007KT 16/13 A3007 RMK A01 T01630134  RH  083%=      5-min Rain = 0
KAD1 161431Z 32007KT 16/13 A3007 RMK A01 T01630133  RH  082%=      5-min Rain = 0
KAD1 161432Z 31007KT 16/13 A3007 RMK A01 T01630133  RH  083%=      5-min Rain = 0
KAD1 161433Z 30006KT 16/13 A3007 RMK A01 T01640134  RH  082%=      5-min Rain = 0
KAD1 161434Z 31005KT 16/13 A3007 RMK A01 T01640133  RH  082%=      5-min Rain = 0
KAD1 161435Z 33006KT 16/14 A3007 RMK A01 T01640135  RH  083%=      5-min Rain = 0
KAD1 161436Z 34006KT 17/13 A3007 RMK A01 T01650134  RH  082%=      5-min Rain = 0
KAD1 161437Z 31007KT 17/14 A3007 RMK A01 T01650135  RH  082%=      5-min Rain = 0
KAD1 161438Z 31008KT 17/13 A3007 RMK A01 T01660133  RH  081%=      5-min Rain = 0
KAD1 161439Z 31008KT 17/13 A3007 RMK A01 T01660133  RH  081%=      5-min Rain = 0
KAD1 161440Z 32006KT 17/13 A3007 RMK A01 T01650134  RH  082%=      5-min Rain = 0
KAD1 161441Z 33007KT 17/14 A3007 RMK A01 T01650135  RH  082%=      5-min Rain = 0
KAD1 161442Z 32008KT 17/14 A3007 RMK A01 T01660136  RH  082%=      5-min Rain = 0
KAD1 161443Z 33007KT 17/14 A3007 RMK A01 T01680136  RH  081%=      5-min Rain = 0
KAD1 161444Z 34008KT 17/14 A3007 RMK A01 T01680137  RH  082%=      5-min Rain = 0
KAD1 161445Z 33009KT 17/14 A3007 RMK A01 T01700137  RH  081%=      5-min Rain = 0
KAD1 161446Z 33007KT 17/14 A3007 RMK A01 T01700136  RH  080%=      5-min Rain = 0
KAD1 161447Z 33007KT 17/14 A3007 RMK A01 T01700138  RH  081%=      5-min Rain = 0
KAD1 161448Z 34008KT 17/14 A3007 RMK A01 T01720138  RH  080%=      5-min Rain = 0
KAD1 161449Z 34010KT 17/14 A3007 RMK A01 T01730137  RH  079%=      5-min Rain = 0
KAD1 161450Z 34009KT 17/13 A3007 RMK A01 T01720134  RH  078%=      5-min Rain = 0
KAD1 161451Z 34009KT 17/13 A3007 RMK A01 T01700133  RH  079%=      5-min Rain = 0
KAD1 161452Z 33008KT 17/13 A3007 RMK A01 T01690134  RH  080%=      5-min Rain = 0
KAD1 161453Z 33009KT 17/14 A3007 RMK A01 T01680135  RH  081%=      5-min Rain = 0
KAD1 161454Z 34009KT 17/14 A3007 RMK A01 T01690135  RH  080%=      5-min Rain = 0
KAD1 161455Z 33009KT 17/13 A3008 RMK A01 T01680134  RH  081%=      5-min Rain = 0
KAD1 161456Z 35008KT 17/14 A3008 RMK A01 T01680135  RH  081%=      5-min Rain = 0
KAD1 161457Z 35009KT 17/14 A3008 RMK A01 T01700135  RH  080%=      5-min Rain = 0
KAD1 161458Z 34010KT 17/14 A3008 RMK A01 T01710135  RH  080%=      5-min Rain = 0
KAD1 161459Z 35009KT 17/13 A3008 RMK A01 T01710133  RH  078%=      5-min Rain = 0
KAD1 161500Z 35008KT 17/13 A3008 RMK A01 T01700132  RH  078%=      5-min Rain = 0
KAD1 161501Z 35007KT 17/14 A3008 RMK A01 T01710135  RH  079%=      5-min Rain = 0
KAD1 161502Z 34008KT 17/14 A3008 RMK A01 T01720136  RH  079%=      5-min Rain = 0
KAD1 161503Z 34008KT 17/14 A3008 RMK A01 T01720136  RH  079%=      5-min Rain = 0
KAD1 161504Z 35009KT 17/14 A3008 RMK A01 T01720135  RH  078%=      5-min Rain = 0
KAD1 161505Z 35009KT 17/13 A3008 RMK A01 T01730134  RH  078%=      5-min Rain = 0
KAD1 161506Z 35009KT 17/13 A3008 RMK A01 T01720133  RH  078%=      5-min Rain = 0
KAD1 161507Z 35009KT 17/14 A3008 RMK A01 T01710135  RH  079%=      5-min Rain = 0
KAD1 161508Z 34008KT 17/14 A3008 RMK A01 T01710135  RH  079%=      5-min Rain = 0
KAD1 161509Z 35009KT 17/13 A3008 RMK A01 T01710134  RH  079%=      5-min Rain = 0
KAD1 161510Z 35009KT 17/14 A3008 RMK A01 T01710135  RH  079%=      5-min Rain = 0
KAD1 161511Z 34009KT 17/13 A3008 RMK A01 T01710134  RH  079%=      5-min Rain = 0
KAD1 161512Z 34009KT 17/13 A3008 RMK A01 T01720133  RH  078%=      5-min Rain = 0
KAD1 161513Z 33008KT 17/13 A3008 RMK A01 T01710133  RH  078%=      5-min Rain = 0
KAD1 161514Z 33008KT 17/14 A3008 RMK A01 T01720135  RH  079%=      5-min Rain = 0
KAD1 161515Z 33009KT 17/14 A3008 RMK A01 T01730135  RH  079%=      5-min Rain = 0
KAD1 161516Z 34007KT 17/14 A3008 RMK A01 T01730135  RH  079%=      5-min Rain = 0
KAD1 161517Z 35007KT 17/14 A3008 RMK A01 T01730136  RH  078%=      5-min Rain = 0
KAD1 161518Z 34007KT 17/13 A3008 RMK A01 T01740134  RH  078%=      5-min Rain = 0
KAD1 161519Z 34008KT 17/14 A3008 RMK A01 T01740135  RH  078%=      5-min Rain = 0
KAD1 161520Z 35007KT 18/14 A3008 RMK A01 T01750135  RH  077%=      5-min Rain = 0
KAD1 161521Z 01008KT 18/13 A3008 RMK A01 T01770134  RH  076%=      5-min Rain = 0
KAD1 161522Z 36008KT 18/14 A3008 RMK A01 T01790135  RH  075%=      5-min Rain = 0
KAD1 161523Z 34008KT 18/14 A3008 RMK A01 T01790136  RH  076%=      5-min Rain = 0
KAD1 161524Z 35007KT 18/13 A3008 RMK A01 T01800134  RH  075%=      5-min Rain = 0
KAD1 161525Z 34006KT 18/13 A3008 RMK A01 T01790134  RH  075%=      5-min Rain = 0
KAD1 161526Z 33007KT 18/13 A3008 RMK A01 T01790134  RH  075%=      5-min Rain = 0
KAD1 161527Z 32007KT 18/13 A3008 RMK A01 T01790132  RH  074%=      5-min Rain = 0
KAD1 161528Z 34006KT 18/13 A3008 RMK A01 T01780131  RH  074%=      5-min Rain = 0
KAD1 161529Z 34004KT 18/13 A3008 RMK A01 T01800131  RH  073%=      5-min Rain = 0
KAD1 161530Z 34005KT 18/13 A3008 RMK A01 T01810131  RH  073%=      5-min Rain = 0
KAD1 161531Z 31006KT 18/13 A3008 RMK A01 T01810134  RH  074%=      5-min Rain = 0
KAD1 161532Z 31005KT 18/13 A3008 RMK A01 T01800134  RH  075%=      5-min Rain = 0
KAD1 161533Z 32006KT 18/14 A3008 RMK A01 T01790135  RH  075%=      5-min Rain = 0
KAD1 161534Z 32007KT 18/13 A3008 RMK A01 T01800132  RH  074%=      5-min Rain = 0
KAD1 161535Z 33006KT 18/13 A3008 RMK A01 T01800132  RH  073%=      5-min Rain = 0
KAD1 161536Z 32005KT 18/13 A3008 RMK A01 T01810132  RH  073%=      5-min Rain = 0
KAD1 161537Z 34007KT 18/13 A3008 RMK A01 T01810131  RH  072%=      5-min Rain = 0
KAD1 161538Z 35006KT 18/13 A3008 RMK A01 T01830130  RH  072%=      5-min Rain = 0
KAD1 161539Z 34006KT 18/13 A3008 RMK A01 T01830133  RH  073%=      5-min Rain = 0
KAD1 161540Z 32005KT 19/14 A3008 RMK A01 T01850136  RH  073%=      5-min Rain = 0
KAD1 161541Z 30005KT 19/14 A3008 RMK A01 T01870136  RH  072%=      5-min Rain = 0
KAD1 161542Z 31006KT 19/13 A3008 RMK A01 T01880134  RH  071%=      5-min Rain = 0
KAD1 161543Z 33005KT 19/13 A3008 RMK A01 T01880134  RH  071%=      5-min Rain = 0
KAD1 161544Z 32006KT 19/13 A3008 RMK A01 T01870134  RH  071%=      5-min Rain = 0
KAD1 161545Z 33006KT 19/13 A3008 RMK A01 T01870133  RH  071%=      5-min Rain = 0
KAD1 161546Z 33005KT 19/13 A3008 RMK A01 T01880133  RH  071%=      5-min Rain = 0
KAD1 161547Z 32005KT 19/14 A3008 RMK A01 T01890136  RH  072%=      5-min Rain = 0
KAD1 161548Z 33005KT 19/14 A3008 RMK A01 T01900135  RH  070%=      5-min Rain = 0
KAD1 161549Z 34005KT 19/14 A3008 RMK A01 T01890136  RH  071%=      5-min Rain = 0
KAD1 161550Z 33003KT 19/14 A3008 RMK A01 T01890135  RH  071%=      5-min Rain = 0
KAD1 161551Z 33005KT 19/14 A3008 RMK A01 T01890135  RH  070%=      5-min Rain = 0
KAD1 161552Z 00004KT 19/13 A3008 RMK A01 T01890133  RH  070%=      5-min Rain = 0
KAD1 161553Z 36004KT 19/14 A3008 RMK A01 T01890137  RH  071%=      5-min Rain = 0
KAD1 161554Z 34005KT 19/14 A3008 RMK A01 T01910136  RH  070%=      5-min Rain = 0
KAD1 161555Z 35006KT 19/13 A3008 RMK A01 T01920133  RH  068%=      5-min Rain = 0
KAD1 161556Z 35005KT 19/13 A3008 RMK A01 T01930131  RH  068%=      5-min Rain = 0
KAD1 161557Z 35006KT 19/13 A3008 RMK A01 T01930131  RH  067%=      5-min Rain = 0
KAD1 161558Z 35006KT 19/13 A3008 RMK A01 T01930132  RH  068%=      5-min Rain = 0
KAD1 161559Z 34008KT 19/13 A3008 RMK A01 T01940132  RH  067%=      5-min Rain = 0
KAD1 161600Z 35007KT 20/13 A3008 RMK A01 T01950133  RH  068%=      5-min Rain = 0
KAD1 161601Z 34007KT 20/13 A3008 RMK A01 T01960128  RH  065%=      5-min Rain = 0
KAD1 161602Z 35008KT 20/13 A3008 RMK A01 T01960131  RH  066%=      5-min Rain = 0
KAD1 161603Z 35006KT 20/13 A3008 RMK A01 T01960130  RH  065%=      5-min Rain = 0
KAD1 161604Z 35007KT 20/13 A3008 RMK A01 T01960131  RH  066%=      5-min Rain = 0
KAD1 161605Z 01007KT 20/13 A3008 RMK A01 T01970129  RH  065%=      5-min Rain = 0
KAD1 161606Z 36005KT 20/13 A3008 RMK A01 T01960128  RH  065%=      5-min Rain = 0
KAD1 161607Z 01007KT 20/13 A3008 RMK A01 T01950130  RH  066%=      5-min Rain = 0
KAD1 161608Z 01006KT 20/13 A3008 RMK A01 T01970131  RH  066%=      5-min Rain = 0
KAD1 161609Z 35006KT 20/13 A3008 RMK A01 T01980128  RH  064%=      5-min Rain = 0
KAD1 161610Z 35005KT 20/13 A3008 RMK A01 T01980128  RH  064%=      5-min Rain = 0
KAD1 161611Z 34007KT 20/13 A3008 RMK A01 T01990130  RH  064%=      5-min Rain = 0
KAD1 161612Z 34008KT 20/12 A3008 RMK A01 T02010124  RH  061%=      5-min Rain = 0
KAD1 161613Z 00007KT 20/13 A3008 RMK A01 T02010125  RH  062%=      5-min Rain = 0
KAD1 161614Z 00007KT 20/13 A3008 RMK A01 T02010127  RH  063%=      5-min Rain = 0
KAD1 161615Z 36011KT 20/12 A3008 RMK A01 T02020120  RH  059%=      5-min Rain = 0
KAD1 161616Z 34010KT 20/12 A3008 RMK A01 T02020115  RH  057%=      5-min Rain = 0
KAD1 161617Z 35010KT 20/12 A3008 RMK A01 T02030117  RH  058%=      5-min Rain = 0
KAD1 161618Z 01007KT 20/12 A3008 RMK A01 T02040120  RH  058%=      5-min Rain = 0
KAD1 161619Z 01008KT 21/12 A3008 RMK A01 T02050123  RH  059%=      5-min Rain = 0
KAD1 161620Z 02008KT 21/12 A3007 RMK A01 T02060124  RH  059%=      5-min Rain = 0
KAD1 161621Z 00009KT 21/13 A3008 RMK A01 T02080125  RH  059%=      5-min Rain = 0
KAD1 161622Z 00008KT 21/12 A3008 RMK A01 T02080124  RH  059%=      5-min Rain = 0
KAD1 161623Z 00011KT 21/12 A3008 RMK A01 T02100120  RH  056%=      5-min Rain = 0
KAD1 161624Z 00010KT 21/12 A3008 RMK A01 T02100119  RH  056%=      5-min Rain = 0
KAD1 161625Z 00009KT 21/12 A3008 RMK A01 T02100121  RH  057%=      5-min Rain = 0
KAD1 161626Z 00007KT 21/12 A3008 RMK A01 T02110118  RH  055%=      5-min Rain = 0
KAD1 161627Z 02007KT 21/12 A3007 RMK A01 T02100116  RH  055%=      5-min Rain = 0
KAD1 161628Z 03011KT 21/12 A3007 RMK A01 T02090122  RH  058%=      5-min Rain = 0
KAD1 161629Z 02010KT 21/12 A3007 RMK A01 T02100120  RH  056%=      5-min Rain = 0
KAD1 161630Z 02010KT 21/12 A3007 RMK A01 T02090119  RH  056%=      5-min Rain = 0
KAD1 161631Z 35009KT 21/12 A3008 RMK A01 T02100121  RH  057%=      5-min Rain = 0
KAD1 161632Z 35009KT 21/12 A3008 RMK A01 T02110117  RH  055%=      5-min Rain = 0
KAD1 161633Z 35011KT 21/12 A3007 RMK A01 T02120117  RH  055%=      5-min Rain = 0
KAD1 161634Z 00012KT 21/12 A3008 RMK A01 T02130121  RH  056%=      5-min Rain = 0
KAD1 161635Z 35011KT 21/12 A3008 RMK A01 T02140120  RH  055%=      5-min Rain = 0
KAD1 161636Z 35007KT 21/12 A3008 RMK A01 T02130118  RH  055%=      5-min Rain = 0
KAD1 161637Z 34008KT 21/12 A3008 RMK A01 T02110119  RH  056%=      5-min Rain = 0
KAD1 161638Z 01008KT 21/12 A3008 RMK A01 T02110122  RH  057%=      5-min Rain = 0
KAD1 161639Z 01011KT 21/12 A3008 RMK A01 T02130123  RH  056%=      5-min Rain = 0
KAD1 161640Z 01009KT 22/12 A3008 RMK A01 T02150123  RH  056%=      5-min Rain = 0
KAD1 161641Z 01010KT 22/13 A3008 RMK A01 T02160125  RH  056%=      5-min Rain = 0
KAD1 161642Z 01010KT 22/12 A3008 RMK A01 T02160120  RH  054%=      5-min Rain = 0
KAD1 161643Z 02011KT 22/12 A3007 RMK A01 T02150119  RH  054%=      5-min Rain = 0
KAD1 161644Z 03010KT 21/12 A3007 RMK A01 T02130121  RH  056%=      5-min Rain = 0
KAD1 161645Z 03010KT 21/12 A3008 RMK A01 T02130122  RH  056%=      5-min Rain = 0
KAD1 161646Z 03009KT 21/12 A3008 RMK A01 T02130122  RH  056%=      5-min Rain = 0
KAD1 161647Z 03009KT 21/12 A3008 RMK A01 T02130123  RH  057%=      5-min Rain = 0
KAD1 161648Z 02007KT 21/12 A3008 RMK A01 T02130123  RH  056%=      5-min Rain = 0
KAD1 161649Z 35006KT 21/12 A3008 RMK A01 T02130123  RH  056%=      5-min Rain = 0
KAD1 161650Z 34009KT 21/12 A3008 RMK A01 T02140122  RH  056%=      5-min Rain = 0
KAD1 161651Z 01009KT 22/12 A3008 RMK A01 T02150123  RH  056%=      5-min Rain = 0
KAD1 161652Z 00010KT 22/13 A3008 RMK A01 T02160126  RH  057%=      5-min Rain = 0
KAD1 161653Z 36009KT 22/12 A3008 RMK A01 T02160122  RH  055%=      5-min Rain = 0
KAD1 161654Z 35008KT 22/12 A3007 RMK A01 T02160123  RH  055%=      5-min Rain = 0
KAD1 161655Z 01009KT 22/13 A3007 RMK A01 T02180126  RH  056%=      5-min Rain = 0
KAD1 161656Z 02009KT 22/13 A3007 RMK A01 T02200126  RH  055%=      5-min Rain = 0
KAD1 161657Z 01008KT 22/12 A3007 RMK A01 T02180124  RH  055%=      5-min Rain = 0
KAD1 161658Z 00010KT 22/12 A3007 RMK A01 T02160122  RH  055%=      5-min Rain = 0
KAD1 161659Z 01010KT 22/12 A3007 RMK A01 T02150120  RH  055%=      5-min Rain = 0
KAD1 161700Z 00010KT 22/13 A3007 RMK A01 T02160126  RH  056%=      5-min Rain = 0
KAD1 161701Z 01009KT 22/13 A3007 RMK A01 T02160125  RH  056%=      5-min Rain = 0
KAD1 161702Z 36007KT 22/12 A3007 RMK A01 T02150124  RH  056%=      5-min Rain = 0
KAD1 161703Z 02005KT 21/13 A3007 RMK A01 T02140125  RH  057%=      5-min Rain = 0
KAD1 161704Z 02008KT 21/12 A3007 RMK A01 T02130124  RH  057%=      5-min Rain = 0
KAD1 161705Z 02010KT 21/13 A3007 RMK A01 T02120125  RH  058%=      5-min Rain = 0
KAD1 161706Z 02008KT 21/12 A3007 RMK A01 T02140119  RH  054%=      5-min Rain = 0
KAD1 161707Z 04008KT 21/12 A3007 RMK A01 T02130122  RH  056%=      5-min Rain = 0
KAD1 161708Z 04010KT 21/13 A3007 RMK A01 T02130125  RH  057%=      5-min Rain = 0
KAD1 161709Z 02010KT 21/12 A3007 RMK A01 T02130119  RH  055%=      5-min Rain = 0
KAD1 161710Z 01009KT 21/12 A3007 RMK A01 T02110118  RH  055%=      5-min Rain = 0
KAD1 161711Z 03007KT 21/12 A3007 RMK A01 T02100120  RH  056%=      5-min Rain = 0
KAD1 161712Z 04011KT 21/12 A3007 RMK A01 T02100121  RH  057%=      5-min Rain = 0
KAD1 161713Z 04010KT 21/12 A3007 RMK A01 T02110124  RH  057%=      5-min Rain = 0
KAD1 161714Z 04011KT 21/12 A3007 RMK A01 T02120122  RH  056%=      5-min Rain = 0
KAD1 161715Z 04009KT 21/12 A3007 RMK A01 T02120119  RH  055%=      5-min Rain = 0
KAD1 161716Z 04010KT 21/12 A3007 RMK A01 T02110124  RH  058%=      5-min Rain = 0
KAD1 161717Z 05009KT 21/13 A3007 RMK A01 T02140129  RH  058%=      5-min Rain = 0
KAD1 161718Z 04010KT 22/13 A3007 RMK A01 T02160128  RH  057%=      5-min Rain = 0
KAD1 161719Z 02011KT 22/13 A3007 RMK A01 T02170125  RH  056%=      5-min Rain = 0
KAD1 161720Z 03009KT 22/12 A3007 RMK A01 T02170122  RH  055%=      5-min Rain = 0
KAD1 161721Z 03009KT 21/12 A3007 RMK A01 T02140124  RH  057%=      5-min Rain = 0
KAD1 161722Z 03009KT 21/13 A3007 RMK A01 T02140129  RH  059%=      5-min Rain = 0
KAD1 161723Z 01010KT 22/13 A3007 RMK A01 T02150127  RH  057%=      5-min Rain = 0
KAD1 161724Z 03010KT 22/13 A3007 RMK A01 T02150127  RH  057%=      5-min Rain = 0
KAD1 161725Z 03010KT 22/13 A3007 RMK A01 T02170129  RH  057%=      5-min Rain = 0
KAD1 161726Z 03008KT 22/13 A3007 RMK A01 T02160127  RH  057%=      5-min Rain = 0
KAD1 161727Z 04007KT 22/13 A3007 RMK A01 T02150126  RH  057%=      5-min Rain = 0
KAD1 161728Z 03008KT 22/13 A3007 RMK A01 T02160129  RH  058%=      5-min Rain = 0
KAD1 161729Z 03006KT 22/12 A3007 RMK A01 T02160124  RH  056%=      5-min Rain = 0
KAD1 161730Z 04009KT 21/13 A3007 RMK A01 T02130125  RH  057%=      5-min Rain = 0
KAD1 161731Z 04009KT 21/13 A3007 RMK A01 T02130126  RH  057%=      5-min Rain = 0
KAD1 161732Z 05006KT 22/13 A3007 RMK A01 T02150127  RH  057%=      5-min Rain = 0
KAD1 161733Z 05007G12KT 22/13 A3007 RMK A01 T02170130  RH  058%=      5-min Rain = 0
KAD1 161734Z 03008KT 22/13 A3007 RMK A01 T02170132  RH  058%=      5-min Rain = 0
KAD1 161735Z 06009KT 22/13 A3007 RMK A01 T02160130  RH  058%=      5-min Rain = 0
KAD1 161736Z 06009KT 22/13 A3007 RMK A01 T02160128  RH  057%=      5-min Rain = 0
KAD1 161737Z 06010KT 22/13 A3007 RMK A01 T02180130  RH  057%=      5-min Rain = 0
KAD1 161738Z 05009KT 22/13 A3007 RMK A01 T02180127  RH  056%=      5-min Rain = 0
KAD1 161739Z 05007KT 22/13 A3007 RMK A01 T02180127  RH  056%=      5-min Rain = 0
KAD1 161740Z 04004KT 22/13 A3007 RMK A01 T02160125  RH  056%=      5-min Rain = 0
KAD1 161741Z 04007KT 22/13 A3007 RMK A01 T02150128  RH  058%=      5-min Rain = 0
KAD1 161742Z 05007KT 22/13 A3007 RMK A01 T02160129  RH  058%=      5-min Rain = 0
KAD1 161743Z 04007KT 22/13 A3007 RMK A01 T02170127  RH  057%=      5-min Rain = 0
KAD1 161744Z 05005KT 22/13 A3007 RMK A01 T02160130  RH  058%=      5-min Rain = 0
KAD1 161745Z 05006KT 22/13 A3007 RMK A01 T02160129  RH  058%=      5-min Rain = 0
KAD1 161746Z 07008KT 22/13 A3007 RMK A01 T02170132  RH  058%=      5-min Rain = 0
KAD1 161747Z 04009KT 22/13 A3007 RMK A01 T02180130  RH  057%=      5-min Rain = 0
KAD1 161748Z 04006KT 22/13 A3007 RMK A01 T02190129  RH  056%=      5-min Rain = 0
KAD1 161749Z 02006KT 22/12 A3007 RMK A01 T02170124  RH  055%=      5-min Rain = 0
KAD1 161750Z 03007KT 22/13 A3007 RMK A01 T02160129  RH  058%=      5-min Rain = 0
KAD1 161751Z 04008KT 22/13 A3007 RMK A01 T02160128  RH  057%=      5-min Rain = 0
KAD1 161752Z 04008KT 22/13 A3007 RMK A01 T02160128  RH  057%=      5-min Rain = 0
KAD1 161753Z 05004KT 22/13 A3007 RMK A01 T02180125  RH  055%=      5-min Rain = 0
KAD1 161754Z 05004KT 22/12 A3007 RMK A01 T02180120  RH  054%=      5-min Rain = 0
KAD1 161755Z 04008KT 22/13 A3007 RMK A01 T02170127  RH  056%=      5-min Rain = 0
KAD1 161756Z 04007KT 22/13 A3007 RMK A01 T02190129  RH  057%=      5-min Rain = 0
KAD1 161757Z 04010KT 22/13 A3007 RMK A01 T02220134  RH  057%=      5-min Rain = 0
KAD1 161758Z 05007KT 22/13 A3007 RMK A01 T02220128  RH  055%=      5-min Rain = 0
KAD1 161759Z 06006KT 22/12 A3007 RMK A01 T02180124  RH  055%=      5-min Rain = 0
KAD1 161800Z 04007KT 22/13 A3007 RMK A01 T02170129  RH  057%=      5-min Rain = 0
KAD1 161801Z 02007KT 22/13 A3007 RMK A01 T02210130  RH  056%=      5-min Rain = 0
KAD1 161802Z 01003KT 22/12 A3007 RMK A01 T02200120  RH  053%=      5-min Rain = 0
KAD1 161803Z 03006KT 22/12 A3007 RMK A01 T02190122  RH  054%=      5-min Rain = 0
KAD1 161804Z 06008KT 22/13 A3007 RMK A01 T02190125  RH  055%=      5-min Rain = 0
KAD1 161805Z 06007KT 22/13 A3007 RMK A01 T02210126  RH  055%=      5-min Rain = 0
KAD1 161806Z 05006KT 22/12 A3007 RMK A01 T02200123  RH  054%=      5-min Rain = 0
KAD1 161807Z 06006KT 22/12 A3007 RMK A01 T02170116  RH  053%=      5-min Rain = 0
KAD1 161808Z 05006KT 22/11 A3007 RMK A01 T02160109  RH  050%=      5-min Rain = 0
KAD1 161809Z 07004KT 22/12 A3007 RMK A01 T02150117  RH  053%=      5-min Rain = 0
KAD1 161810Z 04004KT 22/12 A3006 RMK A01 T02150119  RH  055%=      5-min Rain = 0
KAD1 161811Z 04003KT 22/12 A3006 RMK A01 T02160122  RH  055%=      5-min Rain = 0
KAD1 161812Z 04003KT 22/12 A3006 RMK A01 T02180123  RH  055%=      5-min Rain = 0
KAD1 161813Z 06006KT 22/12 A3006 RMK A01 T02190121  RH  054%=      5-min Rain = 0
KAD1 161814Z 08005KT 22/12 A3006 RMK A01 T02220119  RH  052%=      5-min Rain = 0
KAD1 161815Z 08004KT 22/11 A3006 RMK A01 T02230114  RH  050%=      5-min Rain = 0
KAD1 161816Z 07003KT 22/11 A3006 RMK A01 T02200111  RH  050%=      5-min Rain = 0
KAD1 161817Z 05004KT 22/12 A3006 RMK A01 T02200124  RH  054%=      5-min Rain = 0
KAD1 161818Z 04004KT 22/12 A3006 RMK A01 T02220122  RH  053%=      5-min Rain = 0
KAD1 161819Z 03005KT 22/12 A3006 RMK A01 T02230120  RH  052%=      5-min Rain = 0
KAD1 161820Z 07005KT 22/12 A3006 RMK A01 T02210124  RH  054%=      5-min Rain = 0
KAD1 161821Z 06005KT 22/13 A3006 RMK A01 T02210126  RH  055%=      5-min Rain = 0
KAD1 161822Z 04006KT 22/12 A3006 RMK A01 T02220124  RH  054%=      5-min Rain = 0
KAD1 161823Z 05007KT 22/13 A3006 RMK A01 T02210128  RH  055%=      5-min Rain = 0
KAD1 161824Z 07007KT 22/13 A3006 RMK A01 T02220129  RH  056%=      5-min Rain = 0
KAD1 161825Z 06005KT 22/13 A3006 RMK A01 T02220126  RH  055%=      5-min Rain = 0
KAD1 161826Z 06005KT 22/13 A3006 RMK A01 T02200125  RH  055%=      5-min Rain = 0
KAD1 161827Z 06006KT 22/12 A3006 RMK A01 T02200124  RH  055%=      5-min Rain = 0
KAD1 161828Z 06011KT 22/13 A3006 RMK A01 T02190132  RH  057%=      5-min Rain = 0
KAD1 161829Z 06010KT 22/13 A3006 RMK A01 T02190133  RH  058%=      5-min Rain = 0
KAD1 161830Z 06009KT 22/13 A3006 RMK A01 T02190133  RH  058%=      5-min Rain = 0
KAD1 161831Z 06008KT 22/13 A3006 RMK A01 T02180130  RH  058%=      5-min Rain = 0
KAD1 161832Z 08005KT 22/13 A3006 RMK A01 T02160131  RH  058%=      5-min Rain = 0
KAD1 161833Z 06007KT 22/13 A3006 RMK A01 T02160132  RH  059%=      5-min Rain = 0
KAD1 161834Z 05006KT 22/13 A3006 RMK A01 T02150131  RH  059%=      5-min Rain = 0
KAD1 161835Z 05005KT 22/13 A3006 RMK A01 T02150131  RH  059%=      5-min Rain = 0
KAD1 161836Z 04007KT 22/13 A3006 RMK A01 T02150134  RH  060%=      5-min Rain = 0
KAD1 161837Z 05009KT 22/13 A3006 RMK A01 T02150134  RH  060%=      5-min Rain = 0
KAD1 161838Z 05008KT 22/14 A3006 RMK A01 T02160136  RH  060%=      5-min Rain = 0
KAD1 161839Z 05008KT 22/14 A3006 RMK A01 T02170136  RH  060%=      5-min Rain = 0
KAD1 161840Z 05008KT 22/14 A3006 RMK A01 T02170136  RH  060%=      5-min Rain = 0
KAD1 161841Z 05007KT 22/14 A3006 RMK A01 T02150135  RH  060%=      5-min Rain = 0
KAD1 161842Z 05007KT 22/13 A3006 RMK A01 T02150134  RH  060%=      5-min Rain = 0
KAD1 161843Z 06006KT 21/13 A3006 RMK A01 T02140133  RH  060%=      5-min Rain = 0
KAD1 161844Z 05006KT 21/14 A3006 RMK A01 T02130135  RH  061%=      5-min Rain = 0
KAD1 161845Z 04008KT 21/14 A3006 RMK A01 T02140138  RH  062%=      5-min Rain = 0
KAD1 161846Z 05009KT 22/14 A3006 RMK A01 T02160137  RH  061%=      5-min Rain = 0
KAD1 161847Z 04006KT 22/14 A3006 RMK A01 T02160135  RH  060%=      5-min Rain = 0
KAD1 161848Z 02005KT 22/14 A3006 RMK A01 T02150136  RH  061%=      5-min Rain = 0
KAD1 161849Z 02005KT 22/13 A3006 RMK A01 T02150133  RH  059%=      5-min Rain = 0
KAD1 161850Z 02006KT 22/14 A3006 RMK A01 T02150135  RH  060%=      5-min Rain = 0
KAD1 161851Z 01005KT 22/14 A3006 RMK A01 T02150136  RH  061%=      5-min Rain = 0
KAD1 161852Z 01005KT 22/14 A3006 RMK A01 T02150135  RH  060%=      5-min Rain = 0
KAD1 161853Z 02005KT 22/13 A3006 RMK A01 T02150134  RH  060%=      5-min Rain = 0
KAD1 161854Z 03006KT 22/13 A3006 RMK A01 T02150134  RH  060%=      5-min Rain = 0
KAD1 161855Z 02006KT 22/13 A3006 RMK A01 T02150134  RH  060%=      5-min Rain = 0
KAD1 161856Z 01005KT 22/13 A3006 RMK A01 T02150133  RH  059%=      5-min Rain = 0
KAD1 161857Z 02005KT 21/13 A3006 RMK A01 T02140133  RH  060%=      5-min Rain = 0
KAD1 161858Z 04005KT 22/14 A3006 RMK A01 T02150138  RH  061%=      5-min Rain = 0
KAD1 161859Z 05004KT 22/14 A3006 RMK A01 T02160136  RH  060%=      5-min Rain = 0
KAD1 161900Z 03003KT 22/13 A3006 RMK A01 T02160134  RH  059%=      5-min Rain = 0
KAD1 161901Z 02004KT 22/13 A3005 RMK A01 T02160132  RH  059%=      5-min Rain = 0
KAD1 161902Z 36005KT 22/13 A3005 RMK A01 T02170134  RH  059%=      5-min Rain = 0
KAD1 161903Z 00005KT 22/13 A3005 RMK A01 T02180134  RH  059%=      5-min Rain = 0
KAD1 161904Z 02005KT 22/14 A3006 RMK A01 T02190135  RH  059%=      5-min Rain = 0
KAD1 161905Z 03004KT 22/13 A3005 RMK A01 T02190134  RH  059%=      5-min Rain = 0
KAD1 161906Z 03003KT 22/14 A3005 RMK A01 T02190138  RH  060%=      5-min Rain = 0
KAD1 161907Z 05004KT 22/14 A3005 RMK A01 T02190137  RH  059%=      5-min Rain = 0
KAD1 161908Z 02006KT 22/14 A3005 RMK A01 T02190135  RH  059%=      5-min Rain = 0
KAD1 161909Z 02006KT 22/13 A3005 RMK A01 T02190132  RH  058%=      5-min Rain = 0
KAD1 161910Z 02004KT 22/13 A3005 RMK A01 T02170131  RH  058%=      5-min Rain = 0
KAD1 161911Z 04005KT 22/14 A3005 RMK A01 T02170135  RH  059%=      5-min Rain = 0
KAD1 161912Z 02005KT 22/14 A3005 RMK A01 T02180135  RH  059%=      5-min Rain = 0
KAD1 161913Z 03004KT 22/13 A3005 RMK A01 T02200133  RH  058%=      5-min Rain = 0
KAD1 161914Z 03004KT 22/13 A3005 RMK A01 T02200134  RH  058%=      5-min Rain = 0
KAD1 161915Z 04003KT 22/13 A3005 RMK A01 T02200131  RH  057%=      5-min Rain = 0
KAD1 161916Z 05003KT 22/13 A3005 RMK A01 T02200129  RH  056%=      5-min Rain = 0
KAD1 161917Z 04005KT 22/14 A3005 RMK A01 T02200139  RH  060%=      5-min Rain = 0
KAD1 161918Z 04005KT 22/14 A3005 RMK A01 T02230141  RH  060%=      5-min Rain = 0
KAD1 161919Z 02006KT 22/14 A3005 RMK A01 T02240135  RH  057%=      5-min Rain = 0
KAD1 161920Z 01004KT 22/13 A3005 RMK A01 T02220132  RH  057%=      5-min Rain = 0
KAD1 161921Z 36004KT 22/13 A3005 RMK A01 T02210131  RH  057%=      5-min Rain = 0
KAD1 161922Z 01005KT 22/13 A3005 RMK A01 T02200132  RH  057%=      5-min Rain = 0
KAD1 161923Z 35005KT 22/13 A3005 RMK A01 T02210132  RH  057%=      5-min Rain = 0
KAD1 161924Z 36005KT 22/13 A3005 RMK A01 T02210133  RH  057%=      5-min Rain = 0
KAD1 161925Z 04007KT 22/14 A3005 RMK A01 T02230137  RH  058%=      5-min Rain = 0
KAD1 161926Z 06006KT 22/14 A3005 RMK A01 T02240137  RH  058%=      5-min Rain = 0
KAD1 161927Z 06005KT 23/13 A3005 RMK A01 T02250134  RH  057%=      5-min Rain = 0
KAD1 161928Z 06006KT 22/14 A3005 RMK A01 T02240135  RH  057%=      5-min Rain = 0
KAD1 161929Z 05007KT 23/14 A3005 RMK A01 T02260143  RH  059%=      5-min Rain = 0
KAD1 161930Z 04006KT 23/14 A3005 RMK A01 T02290140  RH  057%=      5-min Rain = 0
KAD1 161931Z 03006KT 23/14 A3005 RMK A01 T02290136  RH  056%=      5-min Rain = 0
KAD1 161932Z 05005KT 23/14 A3005 RMK A01 T02270137  RH  057%=      5-min Rain = 0
KAD1 161933Z 05004KT 23/14 A3005 RMK A01 T02280135  RH  056%=      5-min Rain = 0
KAD1 161934Z 03002KT 23/13 A3005 RMK A01 T02270133  RH  055%=      5-min Rain = 0
KAD1 161935Z 05002KT 23/14 A3004 RMK A01 T02270137  RH  057%=      5-min Rain = 0
KAD1 161936Z 06007KT 23/14 A3004 RMK A01 T02300140  RH  057%=      5-min Rain = 0
KAD1 161937Z 04007KT 23/14 A3004 RMK A01 T02300137  RH  056%=      5-min Rain = 0
KAD1 161938Z 04004KT 23/13 A3004 RMK A01 T02290130  RH  054%=      5-min Rain = 0
KAD1 161939Z 08003KT 23/13 A3004 RMK A01 T02280134  RH  055%=      5-min Rain = 0
KAD1 161940Z 00004KT 23/14 A3004 RMK A01 T02300135  RH  055%=      5-min Rain = 0
KAD1 161941Z 01004KT 23/13 A3004 RMK A01 T02300134  RH  055%=      5-min Rain = 0
KAD1 161942Z 03006KT 23/14 A3004 RMK A01 T02300137  RH  056%=      5-min Rain = 0
KAD1 161943Z 06006KT 23/14 A3004 RMK A01 T02300137  RH  056%=      5-min Rain = 0
KAD1 161944Z 06006KT 23/14 A3004 RMK A01 T02280137  RH  056%=      5-min Rain = 0
KAD1 161945Z 06006KT 23/14 A3004 RMK A01 T02280141  RH  058%=      5-min Rain = 0
KAD1 161946Z 03006KT 23/14 A3004 RMK A01 T02310142  RH  057%=      5-min Rain = 0
KAD1 161947Z 36008KT 23/13 A3004 RMK A01 T02340134  RH  053%=      5-min Rain = 0
KAD1 161948Z 35004KT 23/13 A3004 RMK A01 T02340128  RH  051%=      5-min Rain = 0
KAD1 161949Z 34002KT 23/13 A3004 RMK A01 T02320128  RH  052%=      5-min Rain = 0
KAD1 161950Z 29003KT 23/13 A3004 RMK A01 T02320128  RH  052%=      5-min Rain = 0
KAD1 161951Z 28005KT 23/13 A3004 RMK A01 T02330129  RH  052%=      5-min Rain = 0
KAD1 161952Z 29004KT 23/13 A3004 RMK A01 T02320131  RH  053%=      5-min Rain = 0
KAD1 161953Z 31003KT 23/13 A3004 RMK A01 T02310131  RH  053%=      5-min Rain = 0
KAD1 161954Z 33002KT 23/13 A3004 RMK A01 T02320132  RH  053%=      5-min Rain = 0
KAD1 161955Z 03004KT 23/13 A3004 RMK A01 T02330132  RH  053%=      5-min Rain = 0
KAD1 161956Z 05005KT 23/13 A3004 RMK A01 T02310132  RH  054%=      5-min Rain = 0
KAD1 161957Z 06003KT 23/13 A3004 RMK A01 T02270129  RH  054%=      5-min Rain = 0
KAD1 161958Z 02005KT 23/13 A3004 RMK A01 T02250131  RH  055%=      5-min Rain = 0
KAD1 161959Z 01006KT 23/13 A3004 RMK A01 T02260131  RH  055%=      5-min Rain = 0
KAD1 162000Z 34003KT 23/13 A3004 RMK A01 T02250129  RH  055%=      5-min Rain = 0
KAD1 162001Z 34004KT 22/13 A3004 RMK A01 T02240129  RH  055%=      5-min Rain = 0
KAD1 162002Z 00005KT 23/13 A3004 RMK A01 T02250130  RH  055%=      5-min Rain = 0
KAD1 162003Z 36006KT 23/13 A3004 RMK A01 T02270130  RH  054%=      5-min Rain = 0
KAD1 162004Z 34003KT 23/13 A3004 RMK A01 T02300127  RH  053%=      5-min Rain = 0
KAD1 162005Z 35003KT 23/13 A3004 RMK A01 T02320130  RH  053%=      5-min Rain = 0
KAD1 162006Z 32001KT 24/13 A3004 RMK A01 T02350130  RH  052%=      5-min Rain = 0
KAD1 162007Z 01003KT 24/13 A3004 RMK A01 T02380132  RH  051%=      5-min Rain = 0
KAD1 162008Z 06004KT 24/13 A3004 RMK A01 T02400133  RH  051%=      5-min Rain = 0
KAD1 162009Z 05004KT 24/13 A3004 RMK A01 T02390130  RH  051%=      5-min Rain = 0
KAD1 162010Z 04005KT 24/13 A3004 RMK A01 T02360126  RH  050%=      5-min Rain = 0
KAD1 162011Z 06002KT 23/12 A3004 RMK A01 T02330123  RH  050%=      5-min Rain = 0
KAD1 162012Z 01003KT 23/13 A3004 RMK A01 T02330126  RH  051%=      5-min Rain = 0
KAD1 162013Z 03002KT 24/13 A3004 RMK A01 T02350129  RH  051%=      5-min Rain = 0
KAD1 162014Z 05005KT 24/13 A3004 RMK A01 T02360127  RH  050%=      5-min Rain = 0
KAD1 162015Z 05008KT 24/13 A3004 RMK A01 T02360127  RH  051%=      5-min Rain = 0
KAD1 162016Z 06007KT 24/12 A3004 RMK A01 T02350123  RH  049%=      5-min Rain = 0
KAD1 162017Z 05008KT 23/13 A3004 RMK A01 T02340126  RH  051%=      5-min Rain = 0
KAD1 162018Z 05005KT 23/12 A3004 RMK A01 T02340120  RH  049%=      5-min Rain = 0
KAD1 162019Z 04004KT 23/12 A3004 RMK A01 T02340124  RH  050%=      5-min Rain = 0
KAD1 162020Z 06006G11KT 24/13 A3004 RMK A01 T02350128  RH  051%=      5-min Rain = 0
KAD1 162021Z 05008KT 24/14 A3004 RMK A01 T02400135  RH  052%=      5-min Rain = 0
KAD1 162022Z 07005KT 24/12 A3004 RMK A01 T02390124  RH  049%=      5-min Rain = 0
KAD1 162023Z 07006KT 24/13 A3004 RMK A01 T02380128  RH  050%=      5-min Rain = 0
KAD1 162024Z 05007KT 24/14 A3004 RMK A01 T02390136  RH  052%=      5-min Rain = 0
KAD1 162025Z 02007KT 24/14 A3004 RMK A01 T02430135  RH  051%=      5-min Rain = 0
KAD1 162026Z 01006KT 24/13 A3004 RMK A01 T02410128  RH  049%=      5-min Rain = 0
KAD1 162027Z 34004KT 24/13 A3004 RMK A01 T02380126  RH  049%=      5-min Rain = 0
KAD1 162028Z 33004KT 24/12 A3004 RMK A01 T02380123  RH  049%=      5-min Rain = 0
KAD1 162029Z 30003KT 24/12 A3004 RMK A01 T02360122  RH  049%=      5-min Rain = 0
KAD1 162030Z 00005KT 24/12 A3004 RMK A01 T02360122  RH  049%=      5-min Rain = 0
KAD1 162031Z 01004KT 24/13 A3004 RMK A01 T02360125  RH  050%=      5-min Rain = 0
KAD1 162032Z 07002KT 24/12 A3004 RMK A01 T02380122  RH  048%=      5-min Rain = 0
KAD1 162033Z 18000KT 24/12 A3004 RMK A01 T02400123  RH  048%=      5-min Rain = 0
KAD1 162034Z 01001KT 24/13 A3003 RMK A01 T02440129  RH  049%=      5-min Rain = 0
KAD1 162035Z 01003KT 24/13 A3003 RMK A01 T02440125  RH  047%=      5-min Rain = 0
KAD1 162036Z 04003KT 24/13 A3003 RMK A01 T02430129  RH  049%=      5-min Rain = 0
KAD1 162037Z 06006KT 24/13 A3003 RMK A01 T02420130  RH  049%=      5-min Rain = 0
KAD1 162038Z 06006KT 24/13 A3003 RMK A01 T02430132  RH  050%=      5-min Rain = 0
KAD1 162039Z 06006KT 24/13 A3003 RMK A01 T02420128  RH  049%=      5-min Rain = 0
KAD1 162040Z 06006KT 24/12 A3003 RMK A01 T02400121  RH  047%=      5-min Rain = 0
KAD1 162041Z 06004KT 24/12 A3003 RMK A01 T02390118  RH  047%=      5-min Rain = 0
KAD1 162042Z 05003KT 24/12 A3003 RMK A01 T02370120  RH  048%=      5-min Rain = 0
KAD1 162043Z 05003KT 24/12 A3003 RMK A01 T02370121  RH  048%=      5-min Rain = 0
KAD1 162044Z 07004KT 24/13 A3003 RMK A01 T02370125  RH  049%=      5-min Rain = 0
KAD1 162045Z 06001KT 24/12 A3003 RMK A01 T02380121  RH  048%=      5-min Rain = 0
KAD1 162046Z 08003KT 24/12 A3003 RMK A01 T02370124  RH  049%=      5-min Rain = 0
KAD1 162047Z 04002KT 24/12 A3003 RMK A01 T02370123  RH  049%=      5-min Rain = 0
KAD1 162048Z 05004KT 24/13 A3003 RMK A01 T02370127  RH  050%=      5-min Rain = 0
KAD1 162049Z 04004KT 24/13 A3003 RMK A01 T02380125  RH  049%=      5-min Rain = 0
KAD1 162050Z 02003KT 24/12 A3003 RMK A01 T02380118  RH  047%=      5-min Rain = 0
KAD1 162051Z 00005KT 24/12 A3003 RMK A01 T02370120  RH  048%=      5-min Rain = 0
KAD1 162052Z 03006KT 24/12 A3003 RMK A01 T02370122  RH  048%=      5-min Rain = 0
KAD1 162053Z 05007KT 24/13 A3003 RMK A01 T02370127  RH  050%=      5-min Rain = 0
KAD1 162054Z 05006KT 24/13 A3003 RMK A01 T02380126  RH  050%=      5-min Rain = 0
KAD1 162055Z 05006KT 24/13 A3003 RMK A01 T02380126  RH  050%=      5-min Rain = 0
KAD1 162056Z 06005KT 24/12 A3003 RMK A01 T02370123  RH  049%=      5-min Rain = 0
KAD1 162057Z 06005KT 24/13 A3003 RMK A01 T02350126  RH  050%=      5-min Rain = 0
KAD1 162058Z 07005KT 24/12 A3003 RMK A01 T02360121  RH  048%=      5-min Rain = 0
KAD1 162059Z 08005KT 24/12 A3003 RMK A01 T02360121  RH  048%=      5-min Rain = 0
KAD1 162100Z 07004KT 24/12 A3003 RMK A01 T02360120  RH  048%=      5-min Rain = 0
KAD1 162101Z 10003KT 24/12 A3003 RMK A01 T02360122  RH  049%=      5-min Rain = 0
KAD1 162102Z 08003KT 24/12 A3002 RMK A01 T02370124  RH  049%=      5-min Rain = 0
KAD1 162103Z 10004KT 24/12 A3002 RMK A01 T02400124  RH  048%=      5-min Rain = 0
KAD1 162104Z 10002KT 24/12 A3002 RMK A01 T02400120  RH  047%=      5-min Rain = 0
KAD1 162105Z 10002KT 24/12 A3002 RMK A01 T02400122  RH  047%=      5-min Rain = 0
KAD1 162106Z 01003KT 24/12 A3002 RMK A01 T02420122  RH  047%=      5-min Rain = 0
KAD1 162107Z 34003KT 24/11 A3002 RMK A01 T02440111  RH  043%=      5-min Rain = 0
KAD1 162108Z 31003KT 25/11 A3002 RMK A01 T02450111  RH  043%=      5-min Rain = 0
KAD1 162109Z 04006KT 25/12 A3002 RMK A01 T02450121  RH  046%=      5-min Rain = 0
KAD1 162110Z 06005KT 25/12 A3002 RMK A01 T02460120  RH  045%=      5-min Rain = 0
KAD1 162111Z 03004KT 24/12 A3002 RMK A01 T02440121  RH  046%=      5-min Rain = 0
KAD1 162112Z 05005KT 24/13 A3002 RMK A01 T02440126  RH  047%=      5-min Rain = 0
KAD1 162113Z 05004KT 25/12 A3002 RMK A01 T02450116  RH  044%=      5-min Rain = 0
KAD1 162114Z 02003KT 25/12 A3002 RMK A01 T02460116  RH  044%=      5-min Rain = 0
KAD1 162115Z 35002KT 25/11 A3002 RMK A01 T02460108  RH  042%=      5-min Rain = 0
KAD1 162116Z 32003KT 25/11 A3002 RMK A01 T02460106  RH  041%=      5-min Rain = 0
KAD1 162117Z 32003KT 25/11 A3002 RMK A01 T02460106  RH  041%=      5-min Rain = 0
KAD1 162118Z 32003KT 25/11 A3002 RMK A01 T02470107  RH  041%=      5-min Rain = 0
KAD1 162119Z 31002KT 25/11 A3002 RMK A01 T02480105  RH  040%=      5-min Rain = 0
KAD1 162120Z 02003KT 25/11 A3002 RMK A01 T02480108  RH  041%=      5-min Rain = 0
KAD1 162121Z 09003KT 25/12 A3002 RMK A01 T02500119  RH  044%=      5-min Rain = 0
KAD1 162122Z 08003KT 25/12 A3002 RMK A01 T02490120  RH  044%=      5-min Rain = 0
KAD1 162123Z 06004KT 25/12 A3002 RMK A01 T02490118  RH  044%=      5-min Rain = 0
KAD1 162124Z 07004KT 25/12 A3002 RMK A01 T02480121  RH  045%=      5-min Rain = 0
KAD1 162125Z 07003KT 25/12 A3002 RMK A01 T02450119  RH  045%=      5-min Rain = 0
KAD1 162126Z 07006KT 25/12 A3002 RMK A01 T02450123  RH  047%=      5-min Rain = 0
KAD1 162127Z 08005KT 24/13 A3002 RMK A01 T02440126  RH  048%=      5-min Rain = 0
KAD1 162128Z 08004KT 24/12 A3002 RMK A01 T02430119  RH  046%=      5-min Rain = 0
KAD1 162129Z 07006KT 24/13 A3002 RMK A01 T02440125  RH  047%=      5-min Rain = 0
KAD1 162130Z 06005KT 24/12 A3002 RMK A01 T02440124  RH  047%=      5-min Rain = 0
KAD1 162131Z 08004KT 24/13 A3002 RMK A01 T02430125  RH  048%=      5-min Rain = 0
KAD1 162132Z 07005KT 24/13 A3002 RMK A01 T02430126  RH  048%=      5-min Rain = 0
KAD1 162133Z 06005KT 24/13 A3002 RMK A01 T02430126  RH  048%=      5-min Rain = 0
KAD1 162134Z 05007KT 24/13 A3002 RMK A01 T02430133  RH  050%=      5-min Rain = 0
KAD1 162135Z 04008KT 24/13 A3001 RMK A01 T02430130  RH  049%=      5-min Rain = 0
KAD1 162136Z 05006KT 24/13 A3001 RMK A01 T02420127  RH  049%=      5-min Rain = 0
KAD1 162137Z 06005KT 24/13 A3001 RMK A01 T02410125  RH  048%=      5-min Rain = 0
KAD1 162138Z 06006KT 24/13 A3001 RMK A01 T02400125  RH  049%=      5-min Rain = 0
KAD1 162139Z 04007KT 24/13 A3001 RMK A01 T02400125  RH  049%=      5-min Rain = 0
KAD1 162140Z 04004KT 24/12 A3001 RMK A01 T02390123  RH  048%=      5-min Rain = 0
KAD1 162141Z 03005KT 24/13 A3001 RMK A01 T02390127  RH  050%=      5-min Rain = 0
KAD1 162142Z 04004KT 24/13 A3001 RMK A01 T02390129  RH  050%=      5-min Rain = 0
KAD1 162143Z 04003KT 24/13 A3001 RMK A01 T02390130  RH  051%=      5-min Rain = 0
KAD1 162144Z 05005KT 24/13 A3001 RMK A01 T02390130  RH  051%=      5-min Rain = 0
KAD1 162145Z 05003KT 24/13 A3001 RMK A01 T02400129  RH  050%=      5-min Rain = 0
KAD1 162146Z 05002KT 24/13 A3001 RMK A01 T02400132  RH  051%=      5-min Rain = 0
KAD1 162147Z 09001KT 24/13 A3001 RMK A01 T02410129  RH  049%=      5-min Rain = 0
KAD1 162148Z 06001KT 24/13 A3001 RMK A01 T02410127  RH  049%=      5-min Rain = 0
KAD1 162149Z 06001KT 24/13 A3001 RMK A01 T02410127  RH  049%=      5-min Rain = 0
KAD1 162150Z 06000KT 24/13 A3001 RMK A01 T02420129  RH  049%=      5-min Rain = 0
KAD1 162151Z 08000KT 24/13 A3001 RMK A01 T02430129  RH  049%=      5-min Rain = 0
KAD1 162152Z 01000KT 24/13 A3001 RMK A01 T02440128  RH  048%=      5-min Rain = 0
KAD1 162153Z 17000KT 24/13 A3001 RMK A01 T02430129  RH  049%=      5-min Rain = 0
KAD1 162154Z 05000KT 24/13 A3001 RMK A01 T02440129  RH  049%=      5-min Rain = 0
KAD1 162155Z 05002KT 24/13 A3001 RMK A01 T02440130  RH  049%=      5-min Rain = 0
KAD1 162156Z 03004KT 24/13 A3001 RMK A01 T02440132  RH  050%=      5-min Rain = 0
KAD1 162157Z 02004KT 24/13 A3001 RMK A01 T02430131  RH  049%=      5-min Rain = 0
KAD1 162158Z 03006KT 24/13 A3001 RMK A01 T02420134  RH  051%=      5-min Rain = 0
KAD1 162159Z 02005KT 24/14 A3001 RMK A01 T02410135  RH  051%=      5-min Rain = 0
KAD1 162200Z 04006KT 24/14 A3001 RMK A01 T02420137  RH  052%=      5-min Rain = 0
KAD1 162201Z 06005KT 24/13 A3001 RMK A01 T02420132  RH  050%=      5-min Rain = 0
KAD1 162202Z 07005KT 24/13 A3001 RMK A01 T02400132  RH  051%=      5-min Rain = 0
KAD1 162203Z 07007KT 24/13 A3001 RMK A01 T02400133  RH  051%=      5-min Rain = 0
KAD1 162204Z 05006KT 24/14 A3001 RMK A01 T02400135  RH  052%=      5-min Rain = 0
KAD1 162205Z 04007KT 24/14 A3001 RMK A01 T02400136  RH  052%=      5-min Rain = 0
KAD1 162206Z 04008KT 24/14 A3001 RMK A01 T02420138  RH  052%=      5-min Rain = 0
KAD1 162207Z 04007KT 24/14 A3001 RMK A01 T02420135  RH  051%=      5-min Rain = 0
KAD1 162208Z 03009KT 24/14 A3001 RMK A01 T02420135  RH  051%=      5-min Rain = 0
KAD1 162209Z 03007KT 24/14 A3001 RMK A01 T02410135  RH  051%=      5-min Rain = 0
KAD1 162210Z 02006KT 24/13 A3001 RMK A01 T02410134  RH  051%=      5-min Rain = 0
KAD1 162211Z 01005KT 24/13 A3001 RMK A01 T02410132  RH  050%=      5-min Rain = 0
KAD1 162212Z 02003KT 24/13 A3001 RMK A01 T02400132  RH  051%=      5-min Rain = 0
KAD1 162213Z 02004KT 24/13 A3001 RMK A01 T02400130  RH  050%=      5-min Rain = 0
KAD1 162214Z 05007KT 24/14 A3001 RMK A01 T02410136  RH  052%=      5-min Rain = 0
KAD1 162215Z 03005KT 24/14 A3001 RMK A01 T02430137  RH  051%=      5-min Rain = 0
KAD1 162216Z 04004KT 24/14 A3001 RMK A01 T02440135  RH  050%=      5-min Rain = 0
KAD1 162217Z 06006KT 24/14 A3001 RMK A01 T02440135  RH  051%=      5-min Rain = 0
KAD1 162218Z 07007KT 25/13 A3001 RMK A01 T02450130  RH  049%=      5-min Rain = 0
KAD1 162219Z 07006KT 24/13 A3001 RMK A01 T02440129  RH  048%=      5-min Rain = 0
KAD1 162220Z 06005KT 24/13 A3001 RMK A01 T02430131  RH  050%=      5-min Rain = 0
KAD1 162221Z 07004KT 24/13 A3001 RMK A01 T02430131  RH  049%=      5-min Rain = 0
KAD1 162222Z 08003KT 24/13 A3001 RMK A01 T02430125  RH  047%=      5-min Rain = 0
KAD1 162223Z 10002KT 24/13 A3001 RMK A01 T02430125  RH  048%=      5-min Rain = 0
KAD1 162224Z 09001KT 24/12 A3001 RMK A01 T02430124  RH  047%=      5-min Rain = 0
KAD1 162225Z 00000KT 25/13 A3001 RMK A01 T02450125  RH  047%=      5-min Rain = 0
KAD1 162226Z 00000KT 25/13 A3001 RMK A01 T02470128  RH  047%=      5-min Rain = 0
KAD1 162227Z 07001KT 25/13 A3001 RMK A01 T02490127  RH  046%=      5-min Rain = 0
KAD1 162228Z 02004KT 25/13 A3001 RMK A01 T02500131  RH  047%=      5-min Rain = 0
KAD1 162229Z 01004KT 25/13 A30 RMK A01 T02500127  RH  046%=      5-min Rain = 0
KAD1 162230Z 35004KT 25/13 A30 RMK A01 T02480125  RH  046%=      5-min Rain = 0
KAD1 162231Z 00003KT 25/13 A30 RMK A01 T02450125  RH  047%=      5-min Rain = 0
KAD1 162232Z 05002KT 24/13 A30 RMK A01 T02440127  RH  048%=      5-min Rain = 0
KAD1 162233Z 10004KT 24/13 A30 RMK A01 T02440125  RH  047%=      5-min Rain = 0
KAD1 162234Z 10005KT 25/13 A30 RMK A01 T02460125  RH  047%=      5-min Rain = 0
KAD1 162235Z 10006KT 25/13 A30 RMK A01 T02480127  RH  047%=      5-min Rain = 0
KAD1 162236Z 11006KT 25/13 A30 RMK A01 T02500125  RH  046%=      5-min Rain = 0
KAD1 162237Z 10005KT 25/12 A30 RMK A01 T02480123  RH  046%=      5-min Rain = 0
KAD1 162238Z 08005KT 25/13 A30 RMK A01 T02460126  RH  047%=      5-min Rain = 0
KAD1 162239Z 07005KT 25/12 A30 RMK A01 T02450124  RH  047%=      5-min Rain = 0
KAD1 162240Z 05006KT 24/13 A30 RMK A01 T02440129  RH  049%=      5-min Rain = 0
KAD1 162241Z 06006KT 24/13 A30 RMK A01 T02430127  RH  048%=      5-min Rain = 0
KAD1 162242Z 06005KT 24/13 A30 RMK A01 T02420125  RH  048%=      5-min Rain = 0
KAD1 162243Z 06005KT 24/13 A30 RMK A01 T02410125  RH  048%=      5-min Rain = 0
KAD1 162244Z 06005KT 24/13 A30 RMK A01 T02410125  RH  048%=      5-min Rain = 0
KAD1 162245Z 07007KT 24/13 A30 RMK A01 T02410129  RH  049%=      5-min Rain = 0
KAD1 162246Z 08008KT 24/13 A30 RMK A01 T02410129  RH  050%=      5-min Rain = 0
KAD1 162247Z 08008KT 24/13 A30 RMK A01 T02420128  RH  049%=      5-min Rain = 0
KAD1 162248Z 09005KT 24/13 A30 RMK A01 T02420126  RH  048%=      5-min Rain = 0
KAD1 162249Z 09005KT 24/12 A30 RMK A01 T02430124  RH  047%=      5-min Rain = 0
KAD1 162250Z 07004KT 25/13 A30 RMK A01 T02460126  RH  047%=      5-min Rain = 0
KAD1 162251Z 07002KT 25/13 A30 RMK A01 T02470125  RH  046%=      5-min Rain = 0
KAD1 162252Z 05002KT 25/13 A30 RMK A01 T02480127  RH  047%=      5-min Rain = 0
KAD1 162253Z 12005KT 25/13 A30 RMK A01 T02490125  RH  046%=      5-min Rain = 0
KAD1 162254Z 13007KT 25/12 A30 RMK A01 T02520124  RH  045%=      5-min Rain = 0
KAD1 162255Z 12007KT 25/12 A30 RMK A01 T02530123  RH  044%=      5-min Rain = 0
KAD1 162256Z 11004KT 25/12 A30 RMK A01 T02520121  RH  044%=      5-min Rain = 0
KAD1 162257Z 10003KT 25/12 A30 RMK A01 T02510123  RH  045%=      5-min Rain = 0
KAD1 162258Z 14003KT 25/12 A30 RMK A01 T02510121  RH  044%=      5-min Rain = 0
KAD1 162259Z 16003KT 25/12 A30 RMK A01 T02510122  RH  045%=      5-min Rain = 0
KAD1 162300Z 17005KT 25/12 A30 RMK A01 T02530123  RH  044%=      5-min Rain = 0
KAD1 162301Z 19003KT 25/12 A30 RMK A01 T02540122  RH  044%=      5-min Rain = 0
KAD1 162302Z 14004KT 25/12 A30 RMK A01 T02530123  RH  044%=      5-min Rain = 0
KAD1 162303Z 13004KT 25/12 A30 RMK A01 T02530122  RH  044%=      5-min Rain = 0
KAD1 162304Z 11005KT 25/12 A30 RMK A01 T02520124  RH  045%=      5-min Rain = 0
KAD1 162305Z 12003KT 25/13 A30 RMK A01 T02530126  RH  045%=      5-min Rain = 0
KAD1 162306Z 10005KT 25/13 A30 RMK A01 T02540127  RH  045%=      5-min Rain = 0
KAD1 162307Z 08006KT 26/13 A30 RMK A01 T02550130  RH  046%=      5-min Rain = 0
KAD1 162308Z 09010KT 26/13 A30 RMK A01 T02560133  RH  046%=      5-min Rain = 0
KAD1 162309Z 09010KT 26/13 A30 RMK A01 T02570129  RH  045%=      5-min Rain = 0
KAD1 162310Z 09007KT 26/12 A30 RMK A01 T02550123  RH  044%=      5-min Rain = 0
KAD1 162311Z 07005KT 25/12 A30 RMK A01 T02520124  RH  045%=      5-min Rain = 0
KAD1 162312Z 06004KT 25/13 A30 RMK A01 T02520127  RH  046%=      5-min Rain = 0
KAD1 162313Z 05004KT 25/13 A30 RMK A01 T02510125  RH  046%=      5-min Rain = 0
KAD1 162314Z 08004KT 25/13 A30 RMK A01 T02500128  RH  047%=      5-min Rain = 0
KAD1 162315Z 10007KT 25/13 A30 RMK A01 T02520126  RH  046%=      5-min Rain = 0
KAD1 162316Z 09009KT 26/13 A30 RMK A01 T02550128  RH  045%=      5-min Rain = 0
KAD1 162317Z 11008KT 26/13 A30 RMK A01 T02560126  RH  044%=      5-min Rain = 0
KAD1 162318Z 12007KT 26/12 A30 RMK A01 T02550122  RH  043%=      5-min Rain = 0
KAD1 162319Z 14006KT 26/13 A2999 RMK A01 T02550126  RH  045%=      5-min Rain = 0
KAD1 162320Z 13005KT 26/12 A2999 RMK A01 T02560124  RH  044%=      5-min Rain = 0
KAD1 162321Z 13007KT 26/12 A2999 RMK A01 T02560124  RH  044%=      5-min Rain = 0
KAD1 162322Z 14005KT 26/12 A2999 RMK A01 T02550122  RH  044%=      5-min Rain = 0
KAD1 162323Z 13003KT 26/12 A2999 RMK A01 T02550122  RH  044%=      5-min Rain = 0
KAD1 162324Z 13005KT 26/12 A2999 RMK A01 T02550123  RH  044%=      5-min Rain = 0
KAD1 162325Z 10009KT 26/13 A2999 RMK A01 T02570127  RH  044%=      5-min Rain = 0
KAD1 162326Z 10007KT 26/13 A2999 RMK A01 T02580127  RH  044%=      5-min Rain = 0
KAD1 162327Z 09007KT 26/13 A2999 RMK A01 T02550126  RH  045%=      5-min Rain = 0
KAD1 162328Z 07010KT 26/13 A2999 RMK A01 T02550133  RH  047%=      5-min Rain = 0
KAD1 162329Z 06010KT 26/13 A2999 RMK A01 T02550133  RH  047%=      5-min Rain = 0
KAD1 162330Z 09007KT 25/13 A2999 RMK A01 T02530134  RH  047%=      5-min Rain = 0
KAD1 162331Z 08007KT 25/13 A2999 RMK A01 T02530133  RH  047%=      5-min Rain = 0
KAD1 162332Z 07008KT 25/14 A2999 RMK A01 T02520136  RH  049%=      5-min Rain = 0
KAD1 162333Z 08006KT 25/13 A2999 RMK A01 T02490134  RH  049%=      5-min Rain = 0
KAD1 162334Z 08007KT 25/13 A2999 RMK A01 T02470133  RH  049%=      5-min Rain = 0
KAD1 162335Z 08006KT 25/13 A2999 RMK A01 T02450131  RH  049%=      5-min Rain = 0
KAD1 162336Z 08006KT 24/13 A2999 RMK A01 T02420132  RH  050%=      5-min Rain = 0
KAD1 162337Z 06006KT 24/13 A2999 RMK A01 T02410133  RH  051%=      5-min Rain = 0
KAD1 162338Z 05008KT 24/13 A2999 RMK A01 T02400132  RH  051%=      5-min Rain = 0
KAD1 162339Z 04007KT 24/13 A2999 RMK A01 T02390129  RH  050%=      5-min Rain = 0
KAD1 162340Z 04005KT 24/13 A2999 RMK A01 T02390131  RH  051%=      5-min Rain = 0
KAD1 162341Z 05004KT 24/13 A2999 RMK A01 T02380132  RH  051%=      5-min Rain = 0
KAD1 162342Z 07004KT 24/13 A2999 RMK A01 T02380134  RH  052%=      5-min Rain = 0
KAD1 162343Z 10005KT 24/13 A2999 RMK A01 T02380129  RH  050%=      5-min Rain = 0
KAD1 162344Z 10005KT 24/13 A2999 RMK A01 T02390130  RH  050%=      5-min Rain = 0
KAD1 162345Z 12005KT 24/13 A30 RMK A01 T02400126  RH  049%=      5-min Rain = 0
KAD1 162346Z 11007KT 24/13 A30 RMK A01 T02420125  RH  048%=      5-min Rain = 0
KAD1 162347Z 11008KT 24/12 A2999 RMK A01 T02430123  RH  047%=      5-min Rain = 0
KAD1 162348Z 12008KT 24/12 A30 RMK A01 T02440123  RH  047%=      5-min Rain = 0
KAD1 162349Z 11008KT 25/12 A30 RMK A01 T02450123  RH  046%=      5-min Rain = 0
KAD1 162350Z 13006KT 25/12 A30 RMK A01 T02460123  RH  046%=      5-min Rain = 0
KAD1 162351Z 13007KT 25/12 A30 RMK A01 T02470124  RH  046%=      5-min Rain = 0
KAD1 162352Z 12007KT 25/13 A2999 RMK A01 T02490125  RH  046%=      5-min Rain = 0
KAD1 162353Z 09007KT 25/13 A30 RMK A01 T02500126  RH  046%=      5-min Rain = 0
KAD1 162354Z 11007KT 25/13 A30 RMK A01 T02520128  RH  046%=      5-min Rain = 0
KAD1 162355Z 11007KT 25/13 A30 RMK A01 T02530125  RH  045%=      5-min Rain = 0
KAD1 162356Z 12007KT 25/12 A30 RMK A01 T02540121  RH  044%=      5-min Rain = 0
KAD1 162357Z 11006KT 25/12 A30 RMK A01 T02520122  RH  044%=      5-min Rain = 0
KAD1 162358Z 12006KT 25/13 A30 RMK A01 T02530125  RH  045%=      5-min Rain = 0
KAD1 162359Z 11007KT 26/13 A30 RMK A01 T02550126  RH  045%=      5-min Rain = 0
KAD1 170000Z 08007KT 26/13 A30 RMK A01 T02570132  RH  046%=      5-min Rain = 0
KAD1 170001Z 09006KT 26/13 A30 RMK A01 T02570130  RH  045%=      5-min Rain = 0
KAD1 170002Z 11006KT 26/13 A30 RMK A01 T02550126  RH  044%=      5-min Rain = 0
KAD1 170003Z 09007KT 25/13 A30 RMK A01 T02540130  RH  046%=      5-min Rain = 0
KAD1 170004Z 08008KT 26/13 A30 RMK A01 T02560133  RH  047%=      5-min Rain = 0
KAD1 170005Z 08007KT 25/13 A30 RMK A01 T02530129  RH  046%=      5-min Rain = 0
KAD1 170006Z 07009KT 25/13 A30 RMK A01 T02520134  RH  048%=      5-min Rain = 0
KAD1 170007Z 07010KT 25/13 A30 RMK A01 T02500130  RH  047%=      5-min Rain = 0
KAD1 170008Z 06009KT 25/13 A30 RMK A01 T02490131  RH  048%=      5-min Rain = 0
KAD1 170009Z 06008KT 25/13 A30 RMK A01 T02480132  RH  048%=      5-min Rain = 0
KAD1 170010Z 07007KT 25/14 A30 RMK A01 T02480135  RH  049%=      5-min Rain = 0
KAD1 170011Z 07007KT 25/14 A30 RMK A01 T02500138  RH  050%=      5-min Rain = 0
KAD1 170012Z 07010KT 25/13 A30 RMK A01 T02510134  RH  048%=      5-min Rain = 0
KAD1 170013Z 07009KT 25/13 A30 RMK A01 T02480130  RH  048%=      5-min Rain = 0
KAD1 170014Z 07009KT 24/13 A30 RMK A01 T02440130  RH  049%=      5-min Rain = 0
KAD1 170015Z 08007KT 24/13 A30 RMK A01 T02430129  RH  049%=      5-min Rain = 0
KAD1 170016Z 08008KT 24/13 A30 RMK A01 T02420128  RH  049%=      5-min Rain = 0
KAD1 170017Z 08007KT 24/13 A30 RMK A01 T02400126  RH  049%=      5-min Rain = 0
KAD1 170018Z 08007KT 24/13 A30 RMK A01 T02390130  RH  050%=      5-min Rain = 0
KAD1 170019Z 08007KT 24/13 A30 RMK A01 T02380128  RH  050%=      5-min Rain = 0
KAD1 170020Z 08007KT 24/13 A30 RMK A01 T02370129  RH  051%=      5-min Rain = 0
KAD1 170021Z 08006KT 24/13 A30 RMK A01 T02360129  RH  051%=      5-min Rain = 0
KAD1 170022Z 07005KT 24/13 A30 RMK A01 T02360125  RH  050%=      5-min Rain = 0
KAD1 170023Z 08005KT 24/13 A30 RMK A01 T02350126  RH  050%=      5-min Rain = 0
KAD1 170024Z 09006KT 24/13 A30 RMK A01 T02350128  RH  051%=      5-min Rain = 0
KAD1 170025Z 09005KT 24/13 A30 RMK A01 T02350129  RH  051%=      5-min Rain = 0
KAD1 170026Z 09005KT 24/13 A30 RMK A01 T02350129  RH  051%=      5-min Rain = 0
KAD1 170027Z 10005KT 24/13 A30 RMK A01 T02350129  RH  051%=      5-min Rain = 0
KAD1 170028Z 10006KT 24/13 A30 RMK A01 T02350127  RH  051%=      5-min Rain = 0
KAD1 170029Z 10006KT 24/13 A30 RMK A01 T02360125  RH  050%=      5-min Rain = 0
KAD1 170030Z 10007KT 24/12 A30 RMK A01 T02370124  RH  049%=      5-min Rain = 0
KAD1 170031Z 11005KT 24/12 A30 RMK A01 T02390123  RH  048%=      5-min Rain = 0
KAD1 170032Z 10005KT 24/12 A30 RMK A01 T02410124  RH  048%=      5-min Rain = 0
KAD1 170033Z 10004KT 24/13 A30 RMK A01 T02430126  RH  048%=      5-min Rain = 0
KAD1 170034Z 08004KT 24/13 A30 RMK A01 T02440128  RH  048%=      5-min Rain = 0
KAD1 170035Z 07005KT 25/13 A30 RMK A01 T02450130  RH  049%=      5-min Rain = 0
KAD1 170036Z 08006KT 25/13 A30 RMK A01 T02450131  RH  049%=      5-min Rain = 0
KAD1 170037Z 09005KT 25/13 A30 RMK A01 T02450130  RH  049%=      5-min Rain = 0
KAD1 170038Z 10006KT 24/13 A30 RMK A01 T02440131  RH  049%=      5-min Rain = 0
KAD1 170039Z 10009KT 24/13 A30 RMK A01 T02440130  RH  049%=      5-min Rain = 0
KAD1 170040Z 10008KT 25/13 A30 RMK A01 T02450129  RH  048%=      5-min Rain = 0
KAD1 170041Z 09006KT 25/13 A30 RMK A01 T02450130  RH  049%=      5-min Rain = 0
KAD1 170042Z 09006KT 24/13 A30 RMK A01 T02440130  RH  049%=      5-min Rain = 0
KAD1 170043Z 08007KT 24/13 A30 RMK A01 T02430131  RH  050%=      5-min Rain = 0
KAD1 170044Z 08008KT 24/13 A30 RMK A01 T02410130  RH  050%=      5-min Rain = 0
KAD1 170045Z 09007KT 24/13 A30 RMK A01 T02400131  RH  050%=      5-min Rain = 0
KAD1 170046Z 09006KT 24/13 A30 RMK A01 T02390130  RH  051%=      5-min Rain = 0
KAD1 170047Z 09004KT 24/13 A30 RMK A01 T02390130  RH  051%=      5-min Rain = 0
KAD1 170048Z 08005KT 24/13 A30 RMK A01 T02380130  RH  051%=      5-min Rain = 0
KAD1 170049Z 08006KT 24/13 A30 RMK A01 T02380133  RH  052%=      5-min Rain = 0
KAD1 170050Z 07006KT 24/13 A30 RMK A01 T02370133  RH  052%=      5-min Rain = 0
KAD1 170051Z 08007KT 24/13 A30 RMK A01 T02360133  RH  053%=      5-min Rain = 0
KAD1 170052Z 09008KT 24/13 A30 RMK A01 T02350130  RH  052%=      5-min Rain = 0
KAD1 170053Z 09007KT 24/13 A30 RMK A01 T02350129  RH  051%=      5-min Rain = 0
KAD1 170054Z 09007KT 24/13 A30 RMK A01 T02350129  RH  051%=      5-min Rain = 0
KAD1 170055Z 10007KT 24/13 A30 RMK A01 T02350127  RH  051%=      5-min Rain = 0
KAD1 170056Z 09008KT 24/13 A30 RMK A01 T02350128  RH  051%=      5-min Rain = 0
KAD1 170057Z 09006KT 24/13 A30 RMK A01 T02350127  RH  051%=      5-min Rain = 0
KAD1 170058Z 09006KT 23/13 A30 RMK A01 T02340129  RH  051%=      5-min Rain = 0
KAD1 170059Z 08005KT 23/13 A30 RMK A01 T02330130  RH  052%=      5-min Rain = 0
KAD1 170100Z 08006KT 23/13 A30 RMK A01 T02310132  RH  053%=      5-min Rain = 0
KAD1 170101Z 08006KT 23/13 A30 RMK A01 T02290131  RH  054%=      5-min Rain = 0
KAD1 170102Z 09005KT 23/13 A30 RMK A01 T02280132  RH  054%=      5-min Rain = 0
KAD1 170103Z 09006KT 23/13 A30 RMK A01 T02270132  RH  055%=      5-min Rain = 0
KAD1 170104Z 09007KT 23/13 A30 RMK A01 T02260131  RH  055%=      5-min Rain = 0
KAD1 170105Z 09007KT 23/13 A30 RMK A01 T02260130  RH  055%=      5-min Rain = 0
KAD1 170106Z 09007KT 23/13 A3001 RMK A01 T02270131  RH  055%=      5-min Rain = 0
KAD1 170107Z 09007KT 23/13 A3001 RMK A01 T02270132  RH  055%=      5-min Rain = 0
KAD1 170108Z 08007KT 23/13 A3001 RMK A01 T02260131  RH  055%=      5-min Rain = 0
KAD1 170109Z 08007KT 23/13 A3001 RMK A01 T02270131  RH  055%=      5-min Rain = 0
KAD1 170110Z 08007KT 23/13 A3001 RMK A01 T02270133  RH  055%=      5-min Rain = 0
KAD1 170111Z 08007KT 22/13 A3001 RMK A01 T02240133  RH  056%=      5-min Rain = 0
KAD1 170112Z 08007KT 22/13 A30 RMK A01 T02220132  RH  057%=      5-min Rain = 0
KAD1 170113Z 08007KT 22/13 A3001 RMK A01 T02220132  RH  057%=      5-min Rain = 0
KAD1 170114Z 08007KT 22/13 A3001 RMK A01 T02220132  RH  057%=      5-min Rain = 0
KAD1 170115Z 08007KT 22/13 A3001 RMK A01 T02210132  RH  057%=      5-min Rain = 0
KAD1 170116Z 08007KT 22/13 A3001 RMK A01 T02210131  RH  057%=      5-min Rain = 0
KAD1 170117Z 08007KT 22/13 A3001 RMK A01 T02210131  RH  057%=      5-min Rain = 0
KAD1 170118Z 08008KT 22/13 A3001 RMK A01 T02200130  RH  057%=      5-min Rain = 0
KAD1 170119Z 08008KT 22/13 A3001 RMK A01 T02200130  RH  057%=      5-min Rain = 0
KAD1 170120Z 08007KT 22/13 A3001 RMK A01 T02200130  RH  057%=      5-min Rain = 0
KAD1 170121Z 08008KT 22/13 A3001 RMK A01 T02200131  RH  057%=      5-min Rain = 0
KAD1 170122Z 08008KT 22/13 A3001 RMK A01 T02180131  RH  057%=      5-min Rain = 0
KAD1 170123Z 08008KT 22/13 A3001 RMK A01 T02180130  RH  057%=      5-min Rain = 0
KAD1 170124Z 08008KT 22/13 A3001 RMK A01 T02180130  RH  057%=      5-min Rain = 0
KAD1 170125Z 08008KT 22/13 A3001 RMK A01 T02190130  RH  057%=      5-min Rain = 0
KAD1 170126Z 08008KT 22/13 A3001 RMK A01 T02190129  RH  057%=      5-min Rain = 0
KAD1 170127Z 08008KT 22/13 A3001 RMK A01 T02190130  RH  057%=      5-min Rain = 0
KAD1 170128Z 09008KT 22/13 A30 RMK A01 T02180131  RH  057%=      5-min Rain = 0
KAD1 170129Z 09008KT 22/13 A30 RMK A01 T02170130  RH  058%=      5-min Rain = 0
KAD1 170130Z 09007KT 22/13 A30 RMK A01 T02170130  RH  058%=      5-min Rain = 0
KAD1 170131Z 09007KT 22/13 A30 RMK A01 T02160130  RH  058%=      5-min Rain = 0
KAD1 170132Z 09006KT 22/13 A3001 RMK A01 T02160131  RH  058%=      5-min Rain = 0
KAD1 170133Z 08006KT 21/13 A3001 RMK A01 T02140131  RH  059%=      5-min Rain = 0
KAD1 170134Z 08007KT 21/13 A3001 RMK A01 T02130132  RH  060%=      5-min Rain = 0
KAD1 170135Z 09007KT 21/13 A3001 RMK A01 T02110131  RH  060%=      5-min Rain = 0
KAD1 170136Z 09007KT 21/13 A3001 RMK A01 T02110130  RH  060%=      5-min Rain = 0
KAD1 170137Z 09007KT 21/13 A3001 RMK A01 T02110130  RH  060%=      5-min Rain = 0
KAD1 170138Z 09007KT 21/13 A3001 RMK A01 T02100129  RH  060%=      5-min Rain = 0
KAD1 170139Z 09007KT 21/13 A3001 RMK A01 T02110130  RH  060%=      5-min Rain = 0
KAD1 170140Z 08007KT 21/13 A3001 RMK A01 T02100130  RH  060%=      5-min Rain = 0
KAD1 170141Z 09007KT 21/13 A3001 RMK A01 T02090130  RH  060%=      5-min Rain = 0
KAD1 170142Z 09007KT 21/13 A3001 RMK A01 T02090130  RH  060%=      5-min Rain = 0
KAD1 170143Z 09007KT 21/13 A3001 RMK A01 T02090130  RH  061%=      5-min Rain = 0
KAD1 170144Z 09007KT 21/13 A3001 RMK A01 T02090130  RH  061%=      5-min Rain = 0
KAD1 170145Z 09006KT 21/13 A3001 RMK A01 T02080130  RH  061%=      5-min Rain = 0
KAD1 170146Z 09007KT 21/13 A3001 RMK A01 T02070130  RH  061%=      5-min Rain = 0
KAD1 170147Z 09007KT 21/13 A3001 RMK A01 T02070130  RH  061%=      5-min Rain = 0
KAD1 170148Z 09006KT 21/13 A3001 RMK A01 T02060130  RH  062%=      5-min Rain = 0
KAD1 170149Z 09006KT 21/13 A3002 RMK A01 T02060130  RH  062%=      5-min Rain = 0
KAD1 170150Z 09006KT 21/13 A3002 RMK A01 T02060130  RH  062%=      5-min Rain = 0
KAD1 170151Z 09006KT 21/13 A3002 RMK A01 T02050130  RH  062%=      5-min Rain = 0
KAD1 170152Z 09006KT 21/13 A3002 RMK A01 T02050130  RH  062%=      5-min Rain = 0
KAD1 170153Z 10006KT 21/13 A3002 RMK A01 T02050130  RH  062%=      5-min Rain = 0
KAD1 170154Z 09006KT 21/13 A3002 RMK A01 T02050131  RH  062%=      5-min Rain = 0
KAD1 170155Z 09006KT 21/13 A3002 RMK A01 T02060131  RH  062%=      5-min Rain = 0
KAD1 170156Z 10006KT 21/13 A3002 RMK A01 T02050131  RH  062%=      5-min Rain = 0
KAD1 170157Z 10006KT 21/13 A3002 RMK A01 T02050131  RH  062%=      5-min Rain = 0
KAD1 170158Z 10007KT 21/13 A3002 RMK A01 T02050131  RH  062%=      5-min Rain = 0
KAD1 170159Z 10007KT 21/13 A3002 RMK A01 T02060130  RH  062%=      5-min Rain = 0
KAD1 170200Z 10007KT 21/13 A3002 RMK A01 T02060130  RH  062%=      5-min Rain = 0
KAD1 170201Z 09008KT 21/13 A3002 RMK A01 T02060130  RH  062%=      5-min Rain = 0
KAD1 170202Z 10007KT 21/13 A3002 RMK A01 T02060130  RH  062%=      5-min Rain = 0
KAD1 170203Z 10008KT 21/13 A3002 RMK A01 T02060130  RH  062%=      5-min Rain = 0
KAD1 170204Z 10007KT 21/13 A3002 RMK A01 T02060131  RH  062%=      5-min Rain = 0
KAD1 170205Z 10008KT 21/13 A3002 RMK A01 T02050130  RH  062%=      5-min Rain = 0
KAD1 170206Z 10007KT 21/13 A3002 RMK A01 T02050130  RH  062%=      5-min Rain = 0
KAD1 170207Z 10007KT 21/13 A3002 RMK A01 T02050130  RH  062%=      5-min Rain = 0
KAD1 170208Z 10007KT 21/13 A3002 RMK A01 T02050129  RH  062%=      5-min Rain = 0
KAD1 170209Z 10008KT 21/13 A3002 RMK A01 T02050130  RH  062%=      5-min Rain = 0
KAD1 170210Z 10007KT 21/13 A3002 RMK A01 T02050129  RH  062%=      5-min Rain = 0
KAD1 170211Z 10007KT 21/13 A3002 RMK A01 T02050129  RH  062%=      5-min Rain = 0
KAD1 170212Z 11007KT 21/13 A3002 RMK A01 T02050128  RH  061%=      5-min Rain = 0
KAD1 170213Z 11007KT 21/13 A3002 RMK A01 T02050129  RH  062%=      5-min Rain = 0
KAD1 170214Z 11007KT 21/13 A3002 RMK A01 T02050130  RH  062%=      5-min Rain = 0
KAD1 170215Z 11007KT 20/13 A3002 RMK A01 T02040130  RH  062%=      5-min Rain = 0
KAD1 170216Z 11008KT 20/13 A3002 RMK A01 T02040130  RH  063%=      5-min Rain = 0
KAD1 170217Z 11008KT 20/13 A3002 RMK A01 T02030131  RH  063%=      5-min Rain = 0
KAD1 170218Z 11009KT 20/13 A3002 RMK A01 T02030132  RH  063%=      5-min Rain = 0
KAD1 170219Z 11008KT 20/13 A3002 RMK A01 T02030132  RH  064%=      5-min Rain = 0
KAD1 170220Z 11008KT 20/13 A3002 RMK A01 T02020132  RH  064%=      5-min Rain = 0
KAD1 170221Z 11007KT 20/13 A3002 RMK A01 T02010132  RH  064%=      5-min Rain = 0
KAD1 170222Z 11008KT 20/13 A3002 RMK A01 T02010131  RH  064%=      5-min Rain = 0
KAD1 170223Z 11008KT 20/13 A3002 RMK A01 T02010132  RH  065%=      5-min Rain = 0
KAD1 170224Z 11007KT 20/13 A3002 RMK A01 T02000132  RH  065%=      5-min Rain = 0
KAD1 170225Z 11008KT 20/13 A3002 RMK A01 T02000132  RH  065%=      5-min Rain = 0
KAD1 170226Z 11008KT 20/13 A3002 RMK A01 T01990131  RH  065%=      5-min Rain = 0
KAD1 170227Z 11008KT 20/13 A3002 RMK A01 T01990131  RH  065%=      5-min Rain = 0
KAD1 170228Z 11008KT 20/13 A3002 RMK A01 T01990131  RH  065%=      5-min Rain = 0
KAD1 170229Z 11009KT 20/13 A3002 RMK A01 T01990131  RH  065%=      5-min Rain = 0
KAD1 170230Z 11009KT 20/13 A3002 RMK A01 T01990130  RH  064%=      5-min Rain = 0
KAD1 170231Z 11008KT 20/13 A3002 RMK A01 T01990130  RH  064%=      5-min Rain = 0
KAD1 170232Z 11009KT 20/13 A3002 RMK A01 T02000130  RH  064%=      5-min Rain = 0
KAD1 170233Z 11009KT 20/13 A3002 RMK A01 T02000129  RH  064%=      5-min Rain = 0
KAD1 170234Z 11009KT 20/13 A3002 RMK A01 T01990129  RH  064%=      5-min Rain = 0
KAD1 170235Z 11009KT 20/13 A3002 RMK A01 T02000129  RH  064%=      5-min Rain = 0
KAD1 170236Z 11009KT 20/13 A3002 RMK A01 T02000129  RH  064%=      5-min Rain = 0
KAD1 170237Z 11009KT 20/13 A3002 RMK A01 T02000129  RH  064%=      5-min Rain = 0
KAD1 170238Z 11009KT 20/13 A3002 RMK A01 T01990129  RH  064%=      5-min Rain = 0
KAD1 170239Z 11009KT 20/13 A3002 RMK A01 T01990128  RH  064%=      5-min Rain = 0
KAD1 170240Z 11010KT 20/13 A3002 RMK A01 T01990128  RH  064%=      5-min Rain = 0
KAD1 170241Z 11009KT 20/13 A3002 RMK A01 T01990128  RH  064%=      5-min Rain = 0
KAD1 170242Z 11009KT 20/13 A3002 RMK A01 T01980127  RH  064%=      5-min Rain = 0
KAD1 170243Z 11009KT 20/13 A3002 RMK A01 T01980127  RH  063%=      5-min Rain = 0
KAD1 170244Z 11009KT 20/13 A3001 RMK A01 T01980126  RH  063%=      5-min Rain = 0
KAD1 170245Z 11009KT 20/13 A3001 RMK A01 T01980126  RH  063%=      5-min Rain = 0
KAD1 170246Z 11009KT 20/13 A3001 RMK A01 T01970125  RH  063%=      5-min Rain = 0
KAD1 170247Z 11010KT 20/13 A3001 RMK A01 T01970126  RH  063%=      5-min Rain = 0
KAD1 170248Z 11009KT 20/13 A3001 RMK A01 T01970125  RH  063%=      5-min Rain = 0
KAD1 170249Z 11010KT 20/13 A3001 RMK A01 T01970125  RH  063%=      5-min Rain = 0
KAD1 170250Z 11010KT 20/12 A3001 RMK A01 T01960124  RH  063%=      5-min Rain = 0
KAD1 170251Z 11010KT 20/12 A3001 RMK A01 T01960124  RH  063%=      5-min Rain = 0
KAD1 170252Z 11010KT 20/13 A3001 RMK A01 T01960125  RH  063%=      5-min Rain = 0
KAD1 170253Z 11010KT 20/12 A3002 RMK A01 T01960124  RH  063%=      5-min Rain = 0
KAD1 170254Z 11010KT 20/13 A3002 RMK A01 T01960125  RH  063%=      5-min Rain = 0
KAD1 170255Z 11011KT 20/13 A3002 RMK A01 T01950125  RH  064%=      5-min Rain = 0
KAD1 170256Z 11010KT 20/13 A3002 RMK A01 T01950125  RH  064%=      5-min Rain = 0
KAD1 170257Z 11010KT 20/13 A3002 RMK A01 T01950125  RH  064%=      5-min Rain = 0
KAD1 170258Z 11010KT 19/13 A3002 RMK A01 T01940125  RH  064%=      5-min Rain = 0
KAD1 170259Z 11010KT 19/13 A3002 RMK A01 T01940125  RH  064%=      5-min Rain = 0
KAD1 170300Z 11011KT 19/13 A3002 RMK A01 T01940125  RH  064%=      5-min Rain = 0
KAD1 170301Z 11010KT 19/13 A3002 RMK A01 T01930125  RH  064%=      5-min Rain = 0
KAD1 170302Z 11010KT 19/13 A3002 RMK A01 T01930125  RH  065%=      5-min Rain = 0
KAD1 170303Z 11010KT 19/13 A3002 RMK A01 T01930125  RH  065%=      5-min Rain = 0
KAD1 170304Z 11010KT 19/13 A3002 RMK A01 T01920125  RH  065%=      5-min Rain = 0
KAD1 170305Z 11010KT 19/13 A3002 RMK A01 T01920125  RH  065%=      5-min Rain = 0
KAD1 170306Z 11010KT 19/13 A3002 RMK A01 T01920125  RH  065%=      5-min Rain = 0
KAD1 170307Z 11010KT 19/13 A3002 RMK A01 T01920126  RH  065%=      5-min Rain = 0
KAD1 170308Z 11010KT 19/13 A3002 RMK A01 T01920125  RH  065%=      5-min Rain = 0
KAD1 170309Z 11010KT 19/13 A3002 RMK A01 T01910126  RH  066%=      5-min Rain = 0
KAD1 170310Z 11010KT 19/13 A3002 RMK A01 T01910126  RH  066%=      5-min Rain = 0
KAD1 170311Z 11010KT 19/13 A3002 RMK A01 T01910126  RH  066%=      5-min Rain = 0
KAD1 170312Z 11010KT 19/13 A3002 RMK A01 T01910126  RH  066%=      5-min Rain = 0
KAD1 170313Z 11010KT 19/13 A3002 RMK A01 T01900126  RH  066%=      5-min Rain = 0
KAD1 170314Z 11009KT 19/13 A3003 RMK A01 T01900126  RH  067%=      5-min Rain = 0
KAD1 170315Z 11009KT 19/13 A3003 RMK A01 T01900126  RH  067%=      5-min Rain = 0
KAD1 170316Z 11009KT 19/13 A3003 RMK A01 T01890126  RH  067%=      5-min Rain = 0
KAD1 170317Z 11010KT 19/13 A3003 RMK A01 T01890126  RH  067%=      5-min Rain = 0
KAD1 170318Z 11010KT 19/13 A3003 RMK A01 T01880126  RH  067%=      5-min Rain = 0
KAD1 170319Z 11009KT 19/13 A3003 RMK A01 T01880127  RH  067%=      5-min Rain = 0
KAD1 170320Z 11009KT 19/13 A3003 RMK A01 T01880127  RH  067%=      5-min Rain = 0
KAD1 170321Z 11009KT 19/13 A3003 RMK A01 T01880126  RH  068%=      5-min Rain = 0
KAD1 170322Z 11009KT 19/13 A3003 RMK A01 T01870127  RH  068%=      5-min Rain = 0
KAD1 170323Z 11009KT 19/13 A3003 RMK A01 T01870127  RH  068%=      5-min Rain = 0
KAD1 170324Z 11008KT 19/13 A3003 RMK A01 T01870127  RH  068%=      5-min Rain = 0
KAD1 170325Z 11009KT 19/13 A3003 RMK A01 T01870127  RH  068%=      5-min Rain = 0
KAD1 170326Z 11008KT 19/13 A3003 RMK A01 T01870127  RH  068%=      5-min Rain = 0
KAD1 170327Z 12009KT 19/13 A3003 RMK A01 T01870128  RH  068%=      5-min Rain = 0
KAD1 170328Z 11009KT 19/13 A3004 RMK A01 T01870127  RH  068%=      5-min Rain = 0
KAD1 170329Z 11008KT 19/13 A3004 RMK A01 T01870128  RH  068%=      5-min Rain = 0
KAD1 170330Z 11009KT 19/13 A3004 RMK A01 T01870127  RH  068%=      5-min Rain = 0
KAD1 170331Z 11009KT 19/13 A3004 RMK A01 T01870128  RH  069%=      5-min Rain = 0
KAD1 170332Z 11009KT 19/13 A3004 RMK A01 T01870128  RH  069%=      5-min Rain = 0
KAD1 170333Z 11009KT 19/13 A3004 RMK A01 T01870128  RH  069%=      5-min Rain = 0
KAD1 170334Z 11010KT 19/13 A3004 RMK A01 T01860128  RH  069%=      5-min Rain = 0
KAD1 170335Z 12009KT 19/13 A3004 RMK A01 T01860128  RH  069%=      5-min Rain = 0
KAD1 170336Z 12010KT 19/13 A3004 RMK A01 T01860128  RH  069%=      5-min Rain = 0
KAD1 170337Z 11010KT 19/13 A3004 RMK A01 T01860128  RH  069%=      5-min Rain = 0
KAD1 170338Z 12010KT 19/13 A3004 RMK A01 T01860128  RH  069%=      5-min Rain = 0
KAD1 170339Z 12011KT 19/13 A3004 RMK A01 T01860128  RH  069%=      5-min Rain = 0
KAD1 170340Z 12010KT 19/13 A3004 RMK A01 T01860128  RH  069%=      5-min Rain = 0
KAD1 170341Z 12010KT 19/13 A3004 RMK A01 T01860128  RH  069%=      5-min Rain = 0
KAD1 170342Z 12009KT 19/13 A3005 RMK A01 T01860128  RH  069%=      5-min Rain = 0
KAD1 170343Z 12010KT 19/13 A3005 RMK A01 T01860128  RH  069%=      5-min Rain = 0
KAD1 170344Z 12009KT 19/13 A3005 RMK A01 T01860127  RH  069%=      5-min Rain = 0
KAD1 170345Z 12009KT 19/13 A3005 RMK A01 T01860127  RH  068%=      5-min Rain = 0
KAD1 170346Z 12009KT 19/13 A3005 RMK A01 T01860127  RH  068%=      5-min Rain = 0
KAD1 170347Z 12010KT 19/13 A3005 RMK A01 T01870127  RH  068%=      5-min Rain = 0
KAD1 170348Z 12009KT 19/13 A3005 RMK A01 T01870126  RH  068%=      5-min Rain = 0
KAD1 170349Z 12010KT 19/13 A3005 RMK A01 T01870126  RH  068%=      5-min Rain = 0
KAD1 170350Z 12010KT 19/13 A3005 RMK A01 T01870126  RH  068%=      5-min Rain = 0
KAD1 170351Z 12010KT 19/13 A3005 RMK A01 T01870126  RH  068%=      5-min Rain = 0
KAD1 170352Z 12010KT 19/13 A3005 RMK A01 T01870126  RH  067%=      5-min Rain = 0
KAD1 170353Z 12011KT 19/13 A3005 RMK A01 T01870125  RH  067%=      5-min Rain = 0
KAD1 170354Z 12010KT 19/13 A3005 RMK A01 T01880126  RH  067%=      5-min Rain = 0
KAD1 170355Z 12011KT 19/13 A3005 RMK A01 T01880126  RH  067%=      5-min Rain = 0
KAD1 170356Z 12011KT 19/13 A3005 RMK A01 T01880125  RH  067%=      5-min Rain = 0
KAD1 170357Z 12011KT 19/13 A3005 RMK A01 T01880126  RH  067%=      5-min Rain = 0
KAD1 170358Z 12011KT 19/13 A3005 RMK A01 T01880126  RH  067%=      5-min Rain = 0
KAD1 170359Z 12011KT 19/13 A3005 RMK A01 T01880126  RH  067%=      5-min Rain = 0
KAD1 170400Z 12010KT 19/13 A3005 RMK A01 T01880126  RH  067%=      5-min Rain = 0
KAD1 170401Z 12010KT 19/13 A3005 RMK A01 T01870126  RH  067%=      5-min Rain = 0
KAD1 170402Z 12011KT 19/13 A3005 RMK A01 T01870126  RH  067%=      5-min Rain = 0
KAD1 170403Z 12011KT 19/13 A3005 RMK A01 T01870126  RH  068%=      5-min Rain = 0
KAD1 170404Z 12010KT 19/13 A3005 RMK A01 T01870126  RH  068%=      5-min Rain = 0
KAD1 170405Z 12012KT 19/13 A3005 RMK A01 T01870126  RH  068%=      5-min Rain = 0
KAD1 170406Z 12011KT 19/13 A3005 RMK A01 T01870126  RH  068%=      5-min Rain = 0
KAD1 170407Z 12012KT 19/13 A3005 RMK A01 T01870126  RH  067%=      5-min Rain = 0
KAD1 170408Z 12011KT 19/13 A3006 RMK A01 T01870126  RH  067%=      5-min Rain = 0
KAD1 170409Z 12011KT 19/13 A3006 RMK A01 T01870126  RH  067%=      5-min Rain = 0
KAD1 170410Z 13011KT 19/13 A3006 RMK A01 T01870126  RH  068%=      5-min Rain = 0
KAD1 170411Z 12010KT 19/13 A3006 RMK A01 T01870126  RH  068%=      5-min Rain = 0
KAD1 170412Z 12010KT 19/13 A3006 RMK A01 T01870127  RH  068%=      5-min Rain = 0
KAD1 170413Z 12010KT 19/13 A3006 RMK A01 T01860126  RH  068%=      5-min Rain = 0
KAD1 170414Z 13011KT 19/13 A3006 RMK A01 T01860127  RH  068%=      5-min Rain = 0
KAD1 170415Z 13011KT 19/13 A3006 RMK A01 T01860127  RH  068%=      5-min Rain = 0
KAD1 170416Z 13010KT 19/13 A3006 RMK A01 T01860127  RH  068%=      5-min Rain = 0
KAD1 170417Z 13009KT 19/13 A3006 RMK A01 T01860127  RH  069%=      5-min Rain = 0
KAD1 170418Z 13009KT 19/13 A3006 RMK A01 T01860127  RH  069%=      5-min Rain = 0
KAD1 170419Z 13010KT 19/13 A3006 RMK A01 T01860128  RH  069%=      5-min Rain = 0
KAD1 170420Z 13010KT 19/13 A3006 RMK A01 T01860128  RH  069%=      5-min Rain = 0
KAD1 170421Z 13010KT 19/13 A3006 RMK A01 T01860128  RH  069%=      5-min Rain = 0
KAD1 170422Z 13010KT 19/13 A3006 RMK A01 T01860128  RH  069%=      5-min Rain = 0
KAD1 170423Z 13011KT 19/13 A3006 RMK A01 T01860128  RH  069%=      5-min Rain = 0
KAD1 170424Z 13011KT 19/13 A3006 RMK A01 T01860128  RH  069%=      5-min Rain = 0
KAD1 170425Z 13010KT 19/13 A3006 RMK A01 T01860128  RH  069%=      5-min Rain = 0
KAD1 170426Z 13011KT 19/13 A3006 RMK A01 T01850128  RH  069%=      5-min Rain = 0
KAD1 170427Z 13011KT 19/13 A3006 RMK A01 T01850128  RH  069%=      5-min Rain = 0
KAD1 170428Z 13011KT 19/13 A3006 RMK A01 T01850128  RH  069%=      5-min Rain = 0
KAD1 170429Z 13011KT 19/13 A3006 RMK A01 T01850128  RH  069%=      5-min Rain = 0
KAD1 170430Z 13010KT 19/13 A3006 RMK A01 T01850127  RH  069%=      5-min Rain = 0
KAD1 170431Z 13010KT 19/13 A3006 RMK A01 T01850127  RH  069%=      5-min Rain = 0
KAD1 170432Z 13010KT 18/13 A3006 RMK A01 T01840127  RH  069%=      5-min Rain = 0
KAD1 170433Z 13010KT 18/13 A3006 RMK A01 T01840127  RH  069%=      5-min Rain = 0
KAD1 170434Z 13011KT 18/13 A3006 RMK A01 T01840127  RH  070%=      5-min Rain = 0
KAD1 170435Z 13011KT 18/13 A3006 RMK A01 T01830127  RH  070%=      5-min Rain = 0
KAD1 170436Z 13012KT 18/13 A3006 RMK A01 T01830127  RH  070%=      5-min Rain = 0
KAD1 170437Z 13011KT 18/13 A3006 RMK A01 T01830127  RH  070%=      5-min Rain = 0
KAD1 170438Z 13011KT 18/13 A3006 RMK A01 T01830127  RH  070%=      5-min Rain = 0
KAD1 170439Z 13012KT 18/13 A3006 RMK A01 T01820126  RH  070%=      5-min Rain = 0
KAD1 170440Z 13011KT 18/13 A3006 RMK A01 T01820127  RH  070%=      5-min Rain = 0
KAD1 170441Z 13012KT 18/13 A3006 RMK A01 T01820127  RH  070%=      5-min Rain = 0
KAD1 170442Z 13012KT 18/13 A3006 RMK A01 T01820127  RH  070%=      5-min Rain = 0
KAD1 170443Z 13013KT 18/13 A3006 RMK A01 T01820127  RH  070%=      5-min Rain = 0
KAD1 170444Z 13012KT 18/13 A3006 RMK A01 T01820127  RH  070%=      5-min Rain = 0
KAD1 170445Z 13012KT 18/13 A3006 RMK A01 T01820127  RH  070%=      5-min Rain = 0
KAD1 170446Z 13012KT 18/13 A3006 RMK A01 T01820127  RH  070%=      5-min Rain = 0
KAD1 170447Z 13013KT 18/13 A3006 RMK A01 T01820127  RH  071%=      5-min Rain = 0
KAD1 170448Z 13013KT 18/13 A3006 RMK A01 T01820128  RH  071%=      5-min Rain = 0
KAD1 170449Z 13013KT 18/13 A3006 RMK A01 T01820128  RH  071%=      5-min Rain = 0
KAD1 170450Z 13013KT 18/13 A3006 RMK A01 T01810128  RH  071%=      5-min Rain = 0
KAD1 170451Z 12013KT 18/13 A3006 RMK A01 T01810128  RH  071%=      5-min Rain = 0
KAD1 170452Z 12013KT 18/13 A3006 RMK A01 T01810128  RH  071%=      5-min Rain = 0
KAD1 170453Z 12013KT 18/13 A3006 RMK A01 T01810128  RH  071%=      5-min Rain = 0
KAD1 170454Z 12013KT 18/13 A3006 RMK A01 T01810128  RH  071%=      5-min Rain = 0
KAD1 170455Z 12012KT 18/13 A3006 RMK A01 T01810129  RH  071%=      5-min Rain = 0
KAD1 170456Z 12013KT 18/13 A3006 RMK A01 T01810129  RH  072%=      5-min Rain = 0
KAD1 170457Z 12012KT 18/13 A3006 RMK A01 T01810129  RH  072%=      5-min Rain = 0
KAD1 170458Z 12013KT 18/13 A3006 RMK A01 T01810129  RH  072%=      5-min Rain = 0
KAD1 170459Z 12012KT 18/13 A3006 RMK A01 T01810130  RH  072%=      5-min Rain = 0

Page generated in 0.0715 seconds.